Observation data for Sterling City on 12/13/2018      Previous  Date       Current Mesonet Observations  Soil Data  Daily Summary Page  Observations in Plain Language
KSC1 130601Z 19007KT 09/07 A2978 RMK A01 T00920072  RH  088%=      5-min Rain = 0
KSC1 130602Z 19009KT 09/07 A2977 RMK A01 T00920072  RH  088%=      5-min Rain = 0
KSC1 130603Z 20009KT 09/07 A2977 RMK A01 T00920073  RH  088%=      5-min Rain = 0
KSC1 130604Z 20007KT 09/07 A2977 RMK A01 T00920073  RH  088%=      5-min Rain = 0
KSC1 130605Z 20009KT 09/07 A2978 RMK A01 T00910073  RH  088%=      5-min Rain = 0
KSC1 130606Z 19010KT 09/07 A2978 RMK A01 T00910074  RH  089%=      5-min Rain = 0
KSC1 130607Z 20009KT 09/07 A2978 RMK A01 T00920074  RH  089%=      5-min Rain = 0
KSC1 130608Z 20007KT 09/07 A2978 RMK A01 T00920074  RH  088%=      5-min Rain = 0
KSC1 130609Z 19008KT 09/07 A2978 RMK A01 T00920073  RH  088%=      5-min Rain = 0
KSC1 130610Z 20008KT 09/07 A2977 RMK A01 T00910073  RH  088%=      5-min Rain = 0
KSC1 130611Z 20007KT 09/07 A2977 RMK A01 T00910073  RH  089%=      5-min Rain = 0
KSC1 130612Z 20007KT 09/07 A2977 RMK A01 T00910073  RH  089%=      5-min Rain = 0
KSC1 130613Z 20009KT 09/07 A2977 RMK A01 T00910073  RH  089%=      5-min Rain = 0
KSC1 130614Z 20008KT 09/07 A2977 RMK A01 T00910074  RH  089%=      5-min Rain = 0
KSC1 130615Z 21008KT 09/07 A2977 RMK A01 T00910074  RH  089%=      5-min Rain = 0
KSC1 130616Z 20007KT 09/07 A2977 RMK A01 T00910074  RH  089%=      5-min Rain = 0
KSC1 130617Z 20008KT 09/07 A2977 RMK A01 T00910073  RH  089%=      5-min Rain = 0
KSC1 130618Z 20008KT 09/07 A2977 RMK A01 T00910073  RH  089%=      5-min Rain = 0
KSC1 130619Z 20008KT 09/07 A2977 RMK A01 T00900073  RH  089%=      5-min Rain = 0
KSC1 130620Z 20009KT 09/07 A2977 RMK A01 T00900074  RH  090%=      5-min Rain = 0
KSC1 130621Z 20008KT 09/07 A2977 RMK A01 T00900074  RH  090%=      5-min Rain = 0
KSC1 130622Z 20008KT 09/07 A2977 RMK A01 T00900074  RH  090%=      5-min Rain = 0
KSC1 130623Z 20007KT 09/07 A2976 RMK A01 T00900074  RH  089%=      5-min Rain = 0
KSC1 130624Z 20009KT 09/07 A2976 RMK A01 T00900074  RH  089%=      5-min Rain = 0
KSC1 130625Z 19007KT 09/07 A2976 RMK A01 T00900074  RH  090%=      5-min Rain = 0
KSC1 130626Z 20009KT 09/07 A2976 RMK A01 T00900074  RH  089%=      5-min Rain = 0
KSC1 130627Z 19009KT 09/07 A2976 RMK A01 T00900074  RH  089%=      5-min Rain = 0
KSC1 130628Z 19010KT 09/07 A2976 RMK A01 T00900074  RH  089%=      5-min Rain = 0
KSC1 130629Z 19010KT 09/07 A2976 RMK A01 T00910074  RH  089%=      5-min Rain = 0
KSC1 130630Z 19009KT 09/07 A2976 RMK A01 T00910074  RH  089%=      5-min Rain = 0
KSC1 130631Z 19009KT 09/07 A2976 RMK A01 T00910074  RH  089%=      5-min Rain = 0
KSC1 130632Z 19010KT 09/07 A2976 RMK A01 T00910074  RH  089%=      5-min Rain = 0
KSC1 130633Z 19008KT 09/07 A2976 RMK A01 T00900074  RH  089%=      5-min Rain = 0
KSC1 130634Z 20008KT 09/07 A2976 RMK A01 T00900073  RH  089%=      5-min Rain = 0
KSC1 130635Z 19009KT 09/07 A2976 RMK A01 T00900074  RH  089%=      5-min Rain = 0
KSC1 130636Z 19008KT 09/07 A2976 RMK A01 T00900074  RH  089%=      5-min Rain = 0
KSC1 130637Z 19009KT 09/07 A2976 RMK A01 T00900074  RH  090%=      5-min Rain = 0
KSC1 130638Z 20009KT 09/07 A2976 RMK A01 T00900074  RH  090%=      5-min Rain = 0
KSC1 130639Z 20009KT 09/07 A2976 RMK A01 T00900074  RH  090%=      5-min Rain = 0
KSC1 130640Z 19008KT 09/07 A2976 RMK A01 T00900074  RH  089%=      5-min Rain = 0
KSC1 130641Z 19009KT 09/07 A2976 RMK A01 T00900073  RH  089%=      5-min Rain = 0
KSC1 130642Z 20008KT 09/07 A2976 RMK A01 T00890073  RH  090%=      5-min Rain = 0
KSC1 130643Z 19008KT 09/07 A2976 RMK A01 T00880073  RH  090%=      5-min Rain = 0
KSC1 130644Z 20008KT 09/07 A2976 RMK A01 T00880073  RH  090%=      5-min Rain = 0
KSC1 130645Z 20008KT 09/07 A2976 RMK A01 T00880073  RH  090%=      5-min Rain = 0
KSC1 130646Z 20009KT 09/07 A2976 RMK A01 T00870073  RH  091%=      5-min Rain = 0
KSC1 130647Z 20009KT 09/07 A2975 RMK A01 T00870073  RH  091%=      5-min Rain = 0
KSC1 130648Z 20008KT 09/07 A2976 RMK A01 T00870073  RH  091%=      5-min Rain = 0
KSC1 130649Z 20008KT 09/07 A2976 RMK A01 T00870072  RH  091%=      5-min Rain = 0
KSC1 130650Z 20009KT 09/07 A2975 RMK A01 T00870073  RH  091%=      5-min Rain = 0
KSC1 130651Z 20010KT 09/07 A2975 RMK A01 T00860073  RH  091%=      5-min Rain = 0
KSC1 130652Z 20009KT 09/07 A2975 RMK A01 T00860073  RH  091%=      5-min Rain = 0
KSC1 130653Z 20009KT 09/07 A2975 RMK A01 T00860073  RH  091%=      5-min Rain = 0
KSC1 130654Z 20009KT 09/07 A2975 RMK A01 T00860073  RH  092%=      5-min Rain = 0
KSC1 130655Z 20010KT 09/07 A2975 RMK A01 T00870073  RH  091%=      5-min Rain = 0
KSC1 130656Z 20008KT 09/07 A2975 RMK A01 T00870073  RH  091%=      5-min Rain = 0
KSC1 130657Z 20008KT 09/07 A2975 RMK A01 T00870073  RH  091%=      5-min Rain = 0
KSC1 130658Z 20008KT 09/07 A2975 RMK A01 T00860072  RH  091%=      5-min Rain = 0
KSC1 130659Z 20008KT 09/07 A2975 RMK A01 T00860073  RH  091%=      5-min Rain = 0
KSC1 130700Z 20008KT 09/07 A2975 RMK A01 T00860073  RH  091%=      5-min Rain = 0
KSC1 130701Z 20009KT 09/07 A2975 RMK A01 T00860073  RH  092%=      5-min Rain = 0
KSC1 130702Z 20009KT 09/07 A2975 RMK A01 T00850073  RH  092%=      5-min Rain = 0
KSC1 130703Z 20009KT 09/07 A2975 RMK A01 T00860073  RH  092%=      5-min Rain = 0
KSC1 130704Z 20009KT 09/07 A2975 RMK A01 T00860073  RH  092%=      5-min Rain = 0
KSC1 130705Z 19009KT 09/07 A2975 RMK A01 T00860073  RH  092%=      5-min Rain = 0
KSC1 130706Z 20009KT 09/07 A2975 RMK A01 T00860073  RH  092%=      5-min Rain = 0
KSC1 130707Z 20008KT 09/07 A2975 RMK A01 T00860073  RH  092%=      5-min Rain = 0
KSC1 130708Z 20008KT 09/07 A2974 RMK A01 T00860073  RH  091%=      5-min Rain = 0
KSC1 130709Z 20008KT 09/07 A2974 RMK A01 T00860073  RH  091%=      5-min Rain = 0
KSC1 130710Z 20007KT 09/07 A2974 RMK A01 T00860072  RH  091%=      5-min Rain = 0
KSC1 130711Z 19009KT 09/07 A2974 RMK A01 T00860073  RH  092%=      5-min Rain = 0
KSC1 130712Z 20008KT 09/07 A2974 RMK A01 T00860073  RH  092%=      5-min Rain = 0
KSC1 130713Z 20009KT 09/07 A2974 RMK A01 T00850072  RH  092%=      5-min Rain = 0
KSC1 130714Z 20009KT 09/07 A2974 RMK A01 T00850073  RH  092%=      5-min Rain = 0
KSC1 130715Z 20009KT 09/07 A2974 RMK A01 T00860073  RH  092%=      5-min Rain = 0
KSC1 130716Z 20010KT 09/07 A2974 RMK A01 T00860073  RH  091%=      5-min Rain = 0
KSC1 130717Z 20008KT 09/07 A2974 RMK A01 T00860073  RH  091%=      5-min Rain = 0
KSC1 130718Z 20008KT 09/07 A2974 RMK A01 T00860072  RH  091%=      5-min Rain = 0
KSC1 130719Z 20008KT 09/07 A2974 RMK A01 T00850072  RH  091%=      5-min Rain = 0
KSC1 130720Z 20008KT 09/07 A2974 RMK A01 T00850072  RH  091%=      5-min Rain = 0
KSC1 130721Z 20008KT 09/07 A2974 RMK A01 T00850072  RH  092%=      5-min Rain = 0
KSC1 130722Z 20009KT 09/07 A2974 RMK A01 T00850073  RH  092%=      5-min Rain = 0
KSC1 130723Z 20008KT 09/07 A2974 RMK A01 T00850073  RH  092%=      5-min Rain = 0
KSC1 130724Z 21008KT 09/07 A2974 RMK A01 T00850072  RH  092%=      5-min Rain = 0
KSC1 130725Z 20007KT 09/07 A2974 RMK A01 T00860073  RH  091%=      5-min Rain = 0
KSC1 130726Z 21008KT 09/07 A2974 RMK A01 T00860072  RH  091%=      5-min Rain = 0
KSC1 130727Z 20007KT 09/07 A2974 RMK A01 T00860072  RH  091%=      5-min Rain = 0
KSC1 130728Z 21006KT 09/07 A2974 RMK A01 T00860073  RH  092%=      5-min Rain = 0
KSC1 130729Z 21008KT 09/07 A2974 RMK A01 T00850072  RH  091%=      5-min Rain = 0
KSC1 130730Z 21008KT 09/07 A2974 RMK A01 T00850072  RH  092%=      5-min Rain = 0
KSC1 130731Z 20006KT 09/07 A2974 RMK A01 T00850072  RH  092%=      5-min Rain = 0
KSC1 130732Z 21007KT 09/07 A2974 RMK A01 T00850072  RH  092%=      5-min Rain = 0
KSC1 130733Z 19008KT 09/07 A2974 RMK A01 T00850072  RH  092%=      5-min Rain = 0
KSC1 130734Z 21008KT 09/07 A2974 RMK A01 T00850072  RH  092%=      5-min Rain = 0
KSC1 130735Z 20008KT 09/07 A2974 RMK A01 T00850073  RH  092%=      5-min Rain = 0
KSC1 130736Z 19008KT 09/07 A2974 RMK A01 T00860072  RH  091%=      5-min Rain = 0
KSC1 130737Z 20008KT 09/07 A2974 RMK A01 T00870073  RH  091%=      5-min Rain = 0
KSC1 130738Z 19008KT 09/07 A2974 RMK A01 T00870072  RH  091%=      5-min Rain = 0
KSC1 130739Z 20007KT 09/07 A2973 RMK A01 T00880073  RH  091%=      5-min Rain = 0
KSC1 130740Z 21008KT 09/07 A2973 RMK A01 T00880072  RH  090%=      5-min Rain = 0
KSC1 130741Z 21007KT 09/07 A2974 RMK A01 T00880072  RH  090%=      5-min Rain = 0
KSC1 130742Z 21007KT 09/07 A2973 RMK A01 T00880072  RH  090%=      5-min Rain = 0
KSC1 130743Z 20008KT 09/07 A2973 RMK A01 T00870071  RH  090%=      5-min Rain = 0
KSC1 130744Z 19008KT 09/07 A2973 RMK A01 T00860071  RH  090%=      5-min Rain = 0
KSC1 130745Z 20007KT 09/07 A2973 RMK A01 T00860071  RH  091%=      5-min Rain = 0
KSC1 130746Z 21008KT 09/07 A2973 RMK A01 T00860071  RH  091%=      5-min Rain = 0
KSC1 130747Z 20007KT 09/07 A2973 RMK A01 T00860071  RH  091%=      5-min Rain = 0
KSC1 130748Z 19007KT 09/07 A2973 RMK A01 T00850071  RH  091%=      5-min Rain = 0
KSC1 130749Z 20008KT 09/07 A2973 RMK A01 T00850071  RH  091%=      5-min Rain = 0
KSC1 130750Z 20008KT 09/07 A2973 RMK A01 T00850071  RH  091%=      5-min Rain = 0
KSC1 130751Z 21005KT 09/07 A2973 RMK A01 T00860072  RH  091%=      5-min Rain = 0
KSC1 130752Z 21007KT 09/07 A2973 RMK A01 T00860072  RH  090%=      5-min Rain = 0
KSC1 130753Z 20005KT 09/07 A2973 RMK A01 T00870072  RH  090%=      5-min Rain = 0
KSC1 130754Z 21005KT 09/07 A2973 RMK A01 T00870071  RH  090%=      5-min Rain = 0
KSC1 130755Z 21007KT 09/07 A2973 RMK A01 T00870071  RH  090%=      5-min Rain = 0
KSC1 130756Z 22005KT 09/07 A2973 RMK A01 T00870072  RH  090%=      5-min Rain = 0
KSC1 130757Z 22005KT 09/07 A2973 RMK A01 T00870071  RH  090%=      5-min Rain = 0
KSC1 130758Z 23006KT 09/07 A2973 RMK A01 T00870071  RH  090%=      5-min Rain = 0
KSC1 130759Z 22007KT 09/07 A2973 RMK A01 T00860071  RH  090%=      5-min Rain = 0
KSC1 130800Z 21007KT 09/07 A2973 RMK A01 T00860071  RH  090%=      5-min Rain = 0
KSC1 130801Z 21008KT 09/07 A2973 RMK A01 T00870072  RH  090%=      5-min Rain = 0
KSC1 130802Z 21005KT 09/07 A2973 RMK A01 T00870072  RH  090%=      5-min Rain = 0
KSC1 130803Z 21005KT 09/07 A2973 RMK A01 T00870071  RH  089%=      5-min Rain = 0
KSC1 130804Z 21005KT 09/07 A2973 RMK A01 T00870071  RH  090%=      5-min Rain = 0
KSC1 130805Z 21007KT 09/07 A2973 RMK A01 T00860071  RH  090%=      5-min Rain = 0
KSC1 130806Z 22006KT 09/07 A2973 RMK A01 T00860071  RH  091%=      5-min Rain = 0
KSC1 130807Z 22005KT 09/07 A2973 RMK A01 T00860071  RH  090%=      5-min Rain = 0
KSC1 130808Z 21005KT 09/07 A2973 RMK A01 T00860071  RH  090%=      5-min Rain = 0
KSC1 130809Z 20006KT 09/07 A2973 RMK A01 T00870071  RH  090%=      5-min Rain = 0
KSC1 130810Z 21007KT 09/07 A2973 RMK A01 T00860071  RH  090%=      5-min Rain = 0
KSC1 130811Z 21007KT 09/07 A2973 RMK A01 T00860071  RH  090%=      5-min Rain = 0
KSC1 130812Z 21006KT 09/07 A2973 RMK A01 T00860071  RH  090%=      5-min Rain = 0
KSC1 130813Z 20008KT 09/07 A2973 RMK A01 T00860072  RH  091%=      5-min Rain = 0
KSC1 130814Z 20008KT 09/07 A2973 RMK A01 T00870072  RH  091%=      5-min Rain = 0
KSC1 130815Z 20009KT 09/07 A2973 RMK A01 T00870072  RH  090%=      5-min Rain = 0
KSC1 130816Z 20008KT 09/07 A2973 RMK A01 T00870072  RH  090%=      5-min Rain = 0
KSC1 130817Z 20008G13KT 09/07 A2973 RMK A01 T00880072  RH  090%=      5-min Rain = 0
KSC1 130818Z 20008KT 09/07 A2973 RMK A01 T00880073  RH  090%=      5-min Rain = 0
KSC1 130819Z 20009KT 09/07 A2973 RMK A01 T00880072  RH  090%=      5-min Rain = 0
KSC1 130820Z 21007KT 09/07 A2973 RMK A01 T00890073  RH  090%=      5-min Rain = 0
KSC1 130821Z 21008KT 09/07 A2973 RMK A01 T00880072  RH  089%=      5-min Rain = 0
KSC1 130822Z 21007KT 09/07 A2973 RMK A01 T00880072  RH  090%=      5-min Rain = 0
KSC1 130823Z 21010KT 09/07 A2973 RMK A01 T00870072  RH  090%=      5-min Rain = 0
KSC1 130824Z 21008KT 09/07 A2973 RMK A01 T00870072  RH  090%=      5-min Rain = 0
KSC1 130825Z 22006KT 09/07 A2973 RMK A01 T00870072  RH  090%=      5-min Rain = 0
KSC1 130826Z 23008KT 09/07 A2973 RMK A01 T00870072  RH  090%=      5-min Rain = 0
KSC1 130827Z 23006KT 09/07 A2973 RMK A01 T00870072  RH  090%=      5-min Rain = 0
KSC1 130828Z 21008KT 09/07 A2973 RMK A01 T00870072  RH  090%=      5-min Rain = 0
KSC1 130829Z 22009KT 09/07 A2973 RMK A01 T00860072  RH  091%=      5-min Rain = 0
KSC1 130830Z 21009KT 09/07 A2973 RMK A01 T00860072  RH  090%=      5-min Rain = 0
KSC1 130831Z 21008KT 09/07 A2973 RMK A01 T00860071  RH  090%=      5-min Rain = 0
KSC1 130832Z 21009KT 09/07 A2973 RMK A01 T00860071  RH  090%=      5-min Rain = 0
KSC1 130833Z 20008KT 09/07 A2973 RMK A01 T00860072  RH  091%=      5-min Rain = 0
KSC1 130834Z 20007KT 09/07 A2973 RMK A01 T00860072  RH  091%=      5-min Rain = 0
KSC1 130835Z 21009KT 09/07 A2972 RMK A01 T00860072  RH  091%=      5-min Rain = 0
KSC1 130836Z 21007KT 09/07 A2972 RMK A01 T00860072  RH  091%=      5-min Rain = 0
KSC1 130837Z 21008KT 09/07 A2972 RMK A01 T00860072  RH  091%=      5-min Rain = 0
KSC1 130838Z 22008KT 09/07 A2972 RMK A01 T00860072  RH  091%=      5-min Rain = 0
KSC1 130839Z 22008KT 09/07 A2973 RMK A01 T00860072  RH  091%=      5-min Rain = 0
KSC1 130840Z 22008KT 09/07 A2972 RMK A01 T00860071  RH  091%=      5-min Rain = 0
KSC1 130841Z 21010KT 09/07 A2972 RMK A01 T00860072  RH  091%=      5-min Rain = 0
KSC1 130842Z 22009KT 09/07 A2972 RMK A01 T00860072  RH  091%=      5-min Rain = 0
KSC1 130843Z 22010KT 09/07 A2972 RMK A01 T00860072  RH  091%=      5-min Rain = 0
KSC1 130844Z 21009KT 09/07 A2972 RMK A01 T00860072  RH  091%=      5-min Rain = 0
KSC1 130845Z 22010KT 09/07 A2972 RMK A01 T00860072  RH  091%=      5-min Rain = 0
KSC1 130846Z 20009KT 09/07 A2972 RMK A01 T00860071  RH  090%=      5-min Rain = 0
KSC1 130847Z 20011KT 09/07 A2972 RMK A01 T00860071  RH  090%=      5-min Rain = 0
KSC1 130848Z 20013KT 09/07 A2972 RMK A01 T00860071  RH  090%=      5-min Rain = 0
KSC1 130849Z 21014KT 09/07 A2972 RMK A01 T00860071  RH  090%=      5-min Rain = 0
KSC1 130850Z 20011KT 09/07 A2972 RMK A01 T00870072  RH  090%=      5-min Rain = 0
KSC1 130851Z 20011KT 09/07 A2972 RMK A01 T00870071  RH  090%=      5-min Rain = 0
KSC1 130852Z 20011G16KT 09/07 A2972 RMK A01 T00870071  RH  090%=      5-min Rain = 0
KSC1 130853Z 20010KT 09/07 A2972 RMK A01 T00860071  RH  090%=      5-min Rain = 0
KSC1 130854Z 20010KT 09/07 A2972 RMK A01 T00860071  RH  090%=      5-min Rain = 0
KSC1 130855Z 21011KT 09/07 A2972 RMK A01 T00860071  RH  090%=      5-min Rain = 0
KSC1 130856Z 20012KT 09/07 A2972 RMK A01 T00860071  RH  090%=      5-min Rain = 0
KSC1 130857Z 20010KT 09/07 A2972 RMK A01 T00860071  RH  090%=      5-min Rain = 0
KSC1 130858Z 20011KT 09/07 A2972 RMK A01 T00860071  RH  090%=      5-min Rain = 0
KSC1 130859Z 19010KT 09/07 A2972 RMK A01 T00860071  RH  090%=      5-min Rain = 0
KSC1 130900Z 20009KT 09/07 A2972 RMK A01 T00850070  RH  090%=      5-min Rain = 0
KSC1 130901Z 19012KT 09/07 A2972 RMK A01 T00850070  RH  090%=      5-min Rain = 0
KSC1 130902Z 19010KT 09/07 A2972 RMK A01 T00850070  RH  091%=      5-min Rain = 0
KSC1 130903Z 20012KT 09/07 A2972 RMK A01 T00850070  RH  091%=      5-min Rain = 0
KSC1 130904Z 20010KT 09/07 A2972 RMK A01 T00850070  RH  091%=      5-min Rain = 0
KSC1 130905Z 19009KT 09/07 A2972 RMK A01 T00850070  RH  090%=      5-min Rain = 0
KSC1 130906Z 20009KT 08/07 A2972 RMK A01 T00840070  RH  090%=      5-min Rain = 0
KSC1 130907Z 19009KT 08/07 A2972 RMK A01 T00840069  RH  091%=      5-min Rain = 0
KSC1 130908Z 19010KT 08/07 A2972 RMK A01 T00830069  RH  091%=      5-min Rain = 0
KSC1 130909Z 19011KT 08/07 A2972 RMK A01 T00830070  RH  091%=      5-min Rain = 0
KSC1 130910Z 20010KT 08/07 A2972 RMK A01 T00840070  RH  091%=      5-min Rain = 0
KSC1 130911Z 20010KT 08/07 A2972 RMK A01 T00840070  RH  091%=      5-min Rain = 0
KSC1 130912Z 20009KT 08/07 A2972 RMK A01 T00840070  RH  091%=      5-min Rain = 0
KSC1 130913Z 20010KT 08/07 A2972 RMK A01 T00830069  RH  091%=      5-min Rain = 0
KSC1 130914Z 20009KT 08/07 A2972 RMK A01 T00830069  RH  091%=      5-min Rain = 0
KSC1 130915Z 20010KT 08/07 A2972 RMK A01 T00820069  RH  092%=      5-min Rain = 0
KSC1 130916Z 20011KT 08/07 A2972 RMK A01 T00820069  RH  092%=      5-min Rain = 0
KSC1 130917Z 20010KT 08/07 A2972 RMK A01 T00820070  RH  092%=      5-min Rain = 0
KSC1 130918Z 20009KT 08/07 A2972 RMK A01 T00820069  RH  092%=      5-min Rain = 0
KSC1 130919Z 20011KT 08/07 A2972 RMK A01 T00820069  RH  092%=      5-min Rain = 0
KSC1 130920Z 20011KT 08/07 A2972 RMK A01 T00810069  RH  092%=      5-min Rain = 0
KSC1 130921Z 20011KT 08/07 A2972 RMK A01 T00820070  RH  092%=      5-min Rain = 0
KSC1 130922Z 20010KT 08/07 A2972 RMK A01 T00820070  RH  092%=      5-min Rain = 0
KSC1 130923Z 20011KT 08/07 A2972 RMK A01 T00820070  RH  092%=      5-min Rain = 0
KSC1 130924Z 20012KT 08/07 A2972 RMK A01 T00820070  RH  092%=      5-min Rain = 0
KSC1 130925Z 20012KT 08/07 A2972 RMK A01 T00820070  RH  092%=      5-min Rain = 0
KSC1 130926Z 20014KT 08/07 A2971 RMK A01 T00820070  RH  092%=      5-min Rain = 0
KSC1 130927Z 20012KT 08/07 A2971 RMK A01 T00830070  RH  092%=      5-min Rain = 0
KSC1 130928Z 20010KT 08/07 A2971 RMK A01 T00830070  RH  091%=      5-min Rain = 0
KSC1 130929Z 20010KT 08/07 A2971 RMK A01 T00830070  RH  092%=      5-min Rain = 0
KSC1 130930Z 20012KT 08/07 A2971 RMK A01 T00820070  RH  092%=      5-min Rain = 0
KSC1 130931Z 20011KT 08/07 A2971 RMK A01 T00820070  RH  092%=      5-min Rain = 0
KSC1 130932Z 20012KT 08/07 A2972 RMK A01 T00820070  RH  092%=      5-min Rain = 0
KSC1 130933Z 20011KT 08/07 A2972 RMK A01 T00820070  RH  092%=      5-min Rain = 0
KSC1 130934Z 20012KT 08/07 A2972 RMK A01 T00820070  RH  092%=      5-min Rain = 0
KSC1 130935Z 20011KT 08/07 A2972 RMK A01 T00830071  RH  092%=      5-min Rain = 0
KSC1 130936Z 20014KT 08/07 A2972 RMK A01 T00830070  RH  092%=      5-min Rain = 0
KSC1 130937Z 20011KT 08/07 A2971 RMK A01 T00830070  RH  092%=      5-min Rain = 0
KSC1 130938Z 20012KT 08/07 A2971 RMK A01 T00830070  RH  091%=      5-min Rain = 0
KSC1 130939Z 20011KT 08/07 A2971 RMK A01 T00830070  RH  091%=      5-min Rain = 0
KSC1 130940Z 20011KT 08/07 A2971 RMK A01 T00830070  RH  091%=      5-min Rain = 0
KSC1 130941Z 20012KT 08/07 A2971 RMK A01 T00830070  RH  091%=      5-min Rain = 0
KSC1 130942Z 20012KT 08/07 A2971 RMK A01 T00830070  RH  092%=      5-min Rain = 0
KSC1 130943Z 21012KT 08/07 A2971 RMK A01 T00820070  RH  092%=      5-min Rain = 0
KSC1 130944Z 20012KT 08/07 A2971 RMK A01 T00830070  RH  092%=      5-min Rain = 0
KSC1 130945Z 20011KT 08/07 A2971 RMK A01 T00830070  RH  091%=      5-min Rain = 0
KSC1 130946Z 20009KT 08/07 A2971 RMK A01 T00830069  RH  091%=      5-min Rain = 0
KSC1 130947Z 21009KT 08/07 A2971 RMK A01 T00830069  RH  091%=      5-min Rain = 0
KSC1 130948Z 20009KT 08/07 A2971 RMK A01 T00830069  RH  091%=      5-min Rain = 0
KSC1 130949Z 20009KT 08/07 A2971 RMK A01 T00830069  RH  091%=      5-min Rain = 0
KSC1 130950Z 20009KT 08/07 A2971 RMK A01 T00830068  RH  091%=      5-min Rain = 0
KSC1 130951Z 20010KT 08/07 A2971 RMK A01 T00830069  RH  091%=      5-min Rain = 0
KSC1 130952Z 20009KT 08/07 A2971 RMK A01 T00830069  RH  091%=      5-min Rain = 0
KSC1 130953Z 19009KT 08/07 A2971 RMK A01 T00830068  RH  091%=      5-min Rain = 0
KSC1 130954Z 20010KT 08/07 A2971 RMK A01 T00820068  RH  091%=      5-min Rain = 0
KSC1 130955Z 20010KT 08/07 A2971 RMK A01 T00820068  RH  091%=      5-min Rain = 0
KSC1 130956Z 20010KT 08/07 A2971 RMK A01 T00820068  RH  091%=      5-min Rain = 0
KSC1 130957Z 20010KT 08/07 A2971 RMK A01 T00820068  RH  091%=      5-min Rain = 0
KSC1 130958Z 20010KT 08/07 A2971 RMK A01 T00820068  RH  091%=      5-min Rain = 0
KSC1 130959Z 20010KT 08/07 A2971 RMK A01 T00820068  RH  091%=      5-min Rain = 0
KSC1 131000Z 20009KT 08/07 A2971 RMK A01 T00810068  RH  091%=      5-min Rain = 0
KSC1 131001Z 20009KT 08/07 A297 RMK A01 T00810068  RH  091%=      5-min Rain = 0
KSC1 131002Z 20010KT 08/07 A297 RMK A01 T00810068  RH  091%=      5-min Rain = 0
KSC1 131003Z 20009KT 08/07 A297 RMK A01 T00810067  RH  091%=      5-min Rain = 0
KSC1 131004Z 20010KT 08/07 A297 RMK A01 T00810067  RH  091%=      5-min Rain = 0
KSC1 131005Z 20010KT 08/07 A297 RMK A01 T00800067  RH  091%=      5-min Rain = 0
KSC1 131006Z 20011KT 08/07 A297 RMK A01 T00800067  RH  092%=      5-min Rain = 0
KSC1 131007Z 20009KT 08/07 A297 RMK A01 T00800067  RH  092%=      5-min Rain = 0
KSC1 131008Z 20009KT 08/07 A297 RMK A01 T00800067  RH  091%=      5-min Rain = 0
KSC1 131009Z 20009KT 08/07 A297 RMK A01 T00800066  RH  091%=      5-min Rain = 0
KSC1 131010Z 21009KT 08/07 A297 RMK A01 T00810066  RH  091%=      5-min Rain = 0
KSC1 131011Z 21011KT 08/07 A297 RMK A01 T00820067  RH  090%=      5-min Rain = 0
KSC1 131012Z 21010KT 09/07 A297 RMK A01 T00850068  RH  089%=      5-min Rain = 0
KSC1 131013Z 21010KT 09/07 A297 RMK A01 T00860067  RH  088%=      5-min Rain = 0
KSC1 131014Z 21009KT 09/07 A297 RMK A01 T00870066  RH  087%=      5-min Rain = 0
KSC1 131015Z 21012KT 09/07 A297 RMK A01 T00880066  RH  086%=      5-min Rain = 0
KSC1 131016Z 21011KT 09/07 A297 RMK A01 T00880066  RH  086%=      5-min Rain = 0
KSC1 131017Z 21012KT 09/07 A297 RMK A01 T00890065  RH  085%=      5-min Rain = 0
KSC1 131018Z 21011KT 09/07 A297 RMK A01 T00890065  RH  085%=      5-min Rain = 0
KSC1 131019Z 21011KT 09/07 A297 RMK A01 T00890065  RH  085%=      5-min Rain = 0
KSC1 131020Z 22010KT 09/07 A297 RMK A01 T00890065  RH  085%=      5-min Rain = 0
KSC1 131021Z 21011KT 09/07 A297 RMK A01 T00890065  RH  085%=      5-min Rain = 0
KSC1 131022Z 22010KT 09/06 A297 RMK A01 T00880064  RH  085%=      5-min Rain = 0
KSC1 131023Z 21010KT 09/06 A297 RMK A01 T00880064  RH  085%=      5-min Rain = 0
KSC1 131024Z 22010KT 09/06 A297 RMK A01 T00870064  RH  085%=      5-min Rain = 0
KSC1 131025Z 22012KT 09/06 A297 RMK A01 T00870064  RH  085%=      5-min Rain = 0
KSC1 131026Z 22011KT 09/06 A297 RMK A01 T00870064  RH  085%=      5-min Rain = 0
KSC1 131027Z 21011KT 09/06 A297 RMK A01 T00870064  RH  085%=      5-min Rain = 0
KSC1 131028Z 21011KT 09/06 A297 RMK A01 T00870064  RH  085%=      5-min Rain = 0
KSC1 131029Z 21010KT 09/06 A297 RMK A01 T00870064  RH  085%=      5-min Rain = 0
KSC1 131030Z 21010KT 09/06 A297 RMK A01 T00860064  RH  086%=      5-min Rain = 0
KSC1 131031Z 21011KT 09/06 A297 RMK A01 T00870064  RH  086%=      5-min Rain = 0
KSC1 131032Z 20012KT 09/06 A297 RMK A01 T00870064  RH  085%=      5-min Rain = 0
KSC1 131033Z 21012KT 09/06 A297 RMK A01 T00870064  RH  085%=      5-min Rain = 0
KSC1 131034Z 21011KT 09/06 A297 RMK A01 T00880064  RH  085%=      5-min Rain = 0
KSC1 131035Z 21012KT 09/06 A297 RMK A01 T00890064  RH  085%=      5-min Rain = 0
KSC1 131036Z 21011KT 09/06 A297 RMK A01 T00890064  RH  084%=      5-min Rain = 0
KSC1 131037Z 22011KT 09/06 A297 RMK A01 T00900064  RH  084%=      5-min Rain = 0
KSC1 131038Z 21013KT 09/06 A297 RMK A01 T00900063  RH  084%=      5-min Rain = 0
KSC1 131039Z 21011KT 09/06 A297 RMK A01 T00900063  RH  084%=      5-min Rain = 0
KSC1 131040Z 21011KT 09/06 A297 RMK A01 T00880063  RH  084%=      5-min Rain = 0
KSC1 131041Z 21012KT 09/06 A297 RMK A01 T00880063  RH  084%=      5-min Rain = 0
KSC1 131042Z 21013KT 09/06 A297 RMK A01 T00870063  RH  085%=      5-min Rain = 0
KSC1 131043Z 21011KT 09/06 A297 RMK A01 T00870063  RH  085%=      5-min Rain = 0
KSC1 131044Z 21012KT 09/06 A297 RMK A01 T00860063  RH  085%=      5-min Rain = 0
KSC1 131045Z 21012KT 09/06 A297 RMK A01 T00860063  RH  085%=      5-min Rain = 0
KSC1 131046Z 21011KT 09/06 A297 RMK A01 T00860063  RH  085%=      5-min Rain = 0
KSC1 131047Z 21010KT 09/06 A297 RMK A01 T00860062  RH  085%=      5-min Rain = 0
KSC1 131048Z 22010KT 09/06 A297 RMK A01 T00850062  RH  085%=      5-min Rain = 0
KSC1 131049Z 21011KT 09/06 A297 RMK A01 T00850062  RH  085%=      5-min Rain = 0
KSC1 131050Z 22011KT 09/06 A297 RMK A01 T00850061  RH  085%=      5-min Rain = 0
KSC1 131051Z 21010KT 09/06 A2971 RMK A01 T00860061  RH  085%=      5-min Rain = 0
KSC1 131052Z 21012KT 09/06 A297 RMK A01 T00860061  RH  084%=      5-min Rain = 0
KSC1 131053Z 21011KT 09/06 A297 RMK A01 T00860061  RH  084%=      5-min Rain = 0
KSC1 131054Z 21011KT 09/06 A297 RMK A01 T00860060  RH  084%=      5-min Rain = 0
KSC1 131055Z 21011G17KT 09/06 A297 RMK A01 T00860060  RH  084%=      5-min Rain = 0
KSC1 131056Z 22011KT 09/06 A297 RMK A01 T00870060  RH  083%=      5-min Rain = 0
KSC1 131057Z 21010KT 09/06 A297 RMK A01 T00870060  RH  083%=      5-min Rain = 0
KSC1 131058Z 22011KT 09/06 A297 RMK A01 T00880060  RH  082%=      5-min Rain = 0
KSC1 131059Z 22012KT 09/06 A297 RMK A01 T00890060  RH  082%=      5-min Rain = 0
KSC1 131100Z 22011KT 09/06 A297 RMK A01 T00890059  RH  082%=      5-min Rain = 0
KSC1 131101Z 22009KT 09/06 A297 RMK A01 T00890059  RH  082%=      5-min Rain = 0
KSC1 131102Z 22009KT 09/06 A297 RMK A01 T00890059  RH  082%=      5-min Rain = 0
KSC1 131103Z 22009KT 09/06 A297 RMK A01 T00880059  RH  082%=      5-min Rain = 0
KSC1 131104Z 22010KT 09/06 A297 RMK A01 T00880058  RH  082%=      5-min Rain = 0
KSC1 131105Z 22011KT 09/06 A297 RMK A01 T00880058  RH  082%=      5-min Rain = 0
KSC1 131106Z 22011G16KT 09/06 A297 RMK A01 T00890058  RH  081%=      5-min Rain = 0
KSC1 131107Z 23010KT 09/06 A297 RMK A01 T00900058  RH  080%=      5-min Rain = 0
KSC1 131108Z 23010KT 09/06 A297 RMK A01 T00910057  RH  080%=      5-min Rain = 0
KSC1 131109Z 23010KT 09/06 A297 RMK A01 T00910057  RH  079%=      5-min Rain = 0
KSC1 131110Z 23009KT 09/06 A297 RMK A01 T00920057  RH  079%=      5-min Rain = 0
KSC1 131111Z 24009KT 09/06 A297 RMK A01 T00930057  RH  078%=      5-min Rain = 0
KSC1 131112Z 25009KT 09/06 A297 RMK A01 T00930057  RH  078%=      5-min Rain = 0
KSC1 131113Z 25009KT 09/06 A2971 RMK A01 T00940056  RH  077%=      5-min Rain = 0
KSC1 131114Z 25010G15KT 10/06 A2971 RMK A01 T00950056  RH  077%=      5-min Rain = 0
KSC1 131115Z 25011KT 10/06 A2971 RMK A01 T00950056  RH  076%=      5-min Rain = 0
KSC1 131116Z 25010KT 10/06 A2971 RMK A01 T00960055  RH  076%=      5-min Rain = 0
KSC1 131117Z 24011KT 10/06 A2971 RMK A01 T00960055  RH  076%=      5-min Rain = 0
KSC1 131118Z 25010KT 10/06 A2971 RMK A01 T00960055  RH  076%=      5-min Rain = 0
KSC1 131119Z 25009KT 10/05 A2971 RMK A01 T00960054  RH  075%=      5-min Rain = 0
KSC1 131120Z 25009KT 10/05 A2971 RMK A01 T00960054  RH  075%=      5-min Rain = 0
KSC1 131121Z 25011KT 10/05 A2971 RMK A01 T00950054  RH  075%=      5-min Rain = 0
KSC1 131122Z 25010KT 10/05 A2971 RMK A01 T00950053  RH  075%=      5-min Rain = 0
KSC1 131123Z 25010KT 10/05 A2971 RMK A01 T00950054  RH  075%=      5-min Rain = 0
KSC1 131124Z 25010KT 10/05 A2971 RMK A01 T00950053  RH  075%=      5-min Rain = 0
KSC1 131125Z 25012KT 10/05 A2971 RMK A01 T00950053  RH  075%=      5-min Rain = 0
KSC1 131126Z 25009KT 10/05 A2971 RMK A01 T00950053  RH  075%=      5-min Rain = 0
KSC1 131127Z 24010KT 10/05 A2971 RMK A01 T00960053  RH  074%=      5-min Rain = 0
KSC1 131128Z 24011KT 10/05 A2971 RMK A01 T00960052  RH  074%=      5-min Rain = 0
KSC1 131129Z 24011KT 10/05 A2971 RMK A01 T00970052  RH  074%=      5-min Rain = 0
KSC1 131130Z 25011KT 10/05 A2971 RMK A01 T00980052  RH  073%=      5-min Rain = 0
KSC1 131131Z 25011KT 10/05 A2971 RMK A01 T00980052  RH  073%=      5-min Rain = 0
KSC1 131132Z 25011G17KT 10/05 A2971 RMK A01 T00990052  RH  072%=      5-min Rain = 0
KSC1 131133Z 26011KT 10/05 A2971 RMK A01 T01000051  RH  072%=      5-min Rain = 0
KSC1 131134Z 25018G24KT 10/05 A2971 RMK A01 T01000050  RH  071%=      5-min Rain = 0
KSC1 131135Z 26014KT 10/05 A2971 RMK A01 T01030050  RH  070%=      5-min Rain = 0
KSC1 131136Z 26015KT 10/05 A2971 RMK A01 T01040050  RH  069%=      5-min Rain = 0
KSC1 131137Z 25012KT 10/05 A2971 RMK A01 T01040050  RH  069%=      5-min Rain = 0
KSC1 131138Z 25012KT 10/05 A2971 RMK A01 T01030050  RH  070%=      5-min Rain = 0
KSC1 131139Z 25012KT 10/05 A2971 RMK A01 T01010050  RH  071%=      5-min Rain = 0
KSC1 131140Z 25013G18KT 10/05 A2971 RMK A01 T01000050  RH  071%=      5-min Rain = 0
KSC1 131141Z 25012KT 10/05 A2971 RMK A01 T00990050  RH  071%=      5-min Rain = 0
KSC1 131142Z 26012KT 10/05 A2971 RMK A01 T00990050  RH  071%=      5-min Rain = 0
KSC1 131143Z 25011KT 10/05 A2971 RMK A01 T00990050  RH  072%=      5-min Rain = 0
KSC1 131144Z 25012KT 10/05 A2972 RMK A01 T00990050  RH  072%=      5-min Rain = 0
KSC1 131145Z 25012G17KT 10/05 A2972 RMK A01 T00990050  RH  072%=      5-min Rain = 0
KSC1 131146Z 25013KT 10/05 A2972 RMK A01 T00980049  RH  072%=      5-min Rain = 0
KSC1 131147Z 26012KT 10/05 A2972 RMK A01 T00980049  RH  071%=      5-min Rain = 0
KSC1 131148Z 26013KT 10/05 A2972 RMK A01 T00990049  RH  071%=      5-min Rain = 0
KSC1 131149Z 26013KT 10/05 A2972 RMK A01 T00980049  RH  071%=      5-min Rain = 0
KSC1 131150Z 26014KT 10/05 A2972 RMK A01 T00980048  RH  071%=      5-min Rain = 0
KSC1 131151Z 26015KT 10/05 A2972 RMK A01 T00980047  RH  071%=      5-min Rain = 0
KSC1 131152Z 26016KT 10/05 A2972 RMK A01 T00990047  RH  070%=      5-min Rain = 0
KSC1 131153Z 27016KT 10/05 A2972 RMK A01 T00990047  RH  070%=      5-min Rain = 0
KSC1 131154Z 26015KT 10/05 A2972 RMK A01 T00990046  RH  069%=      5-min Rain = 0
KSC1 131155Z 27015G20KT 10/05 A2972 RMK A01 T00990046  RH  069%=      5-min Rain = 0
KSC1 131156Z 26015KT 10/05 A2972 RMK A01 T00980046  RH  070%=      5-min Rain = 0
KSC1 131157Z 27013KT 10/05 A2972 RMK A01 T00980046  RH  070%=      5-min Rain = 0
KSC1 131158Z 26013KT 10/05 A2972 RMK A01 T00970045  RH  070%=      5-min Rain = 0
KSC1 131159Z 26011KT 10/05 A2973 RMK A01 T00960045  RH  071%=      5-min Rain = 0
KSC1 131200Z 26012KT 10/05 A2973 RMK A01 T00950045  RH  071%=      5-min Rain = 0
KSC1 131201Z 26011KT 09/05 A2973 RMK A01 T00940045  RH  072%=      5-min Rain = 0
KSC1 131202Z 26009KT 09/05 A2973 RMK A01 T00930046  RH  072%=      5-min Rain = 0
KSC1 131203Z 26010KT 09/05 A2973 RMK A01 T00930046  RH  073%=      5-min Rain = 0
KSC1 131204Z 26011KT 09/05 A2973 RMK A01 T00920046  RH  073%=      5-min Rain = 0
KSC1 131205Z 26009KT 09/05 A2973 RMK A01 T00910046  RH  073%=      5-min Rain = 0
KSC1 131206Z 27010KT 09/05 A2973 RMK A01 T00910046  RH  073%=      5-min Rain = 0
KSC1 131207Z 26013KT 09/05 A2973 RMK A01 T00910046  RH  073%=      5-min Rain = 0
KSC1 131208Z 26012KT 09/05 A2973 RMK A01 T00910045  RH  073%=      5-min Rain = 0
KSC1 131209Z 27013KT 09/05 A2973 RMK A01 T00920045  RH  072%=      5-min Rain = 0
KSC1 131210Z 27012KT 09/04 A2973 RMK A01 T00920044  RH  072%=      5-min Rain = 0
KSC1 131211Z 27011KT 09/04 A2974 RMK A01 T00920043  RH  072%=      5-min Rain = 0
KSC1 131212Z 27010G17KT 09/04 A2974 RMK A01 T00920043  RH  071%=      5-min Rain = 0
KSC1 131213Z 27011KT 09/04 A2974 RMK A01 T00910042  RH  071%=      5-min Rain = 0
KSC1 131214Z 27011KT 09/04 A2974 RMK A01 T00920042  RH  071%=      5-min Rain = 0
KSC1 131215Z 27011G16KT 09/04 A2974 RMK A01 T00920041  RH  070%=      5-min Rain = 0
KSC1 131216Z 27010KT 09/04 A2974 RMK A01 T00930041  RH  070%=      5-min Rain = 0
KSC1 131217Z 27009KT 09/04 A2974 RMK A01 T00930040  RH  070%=      5-min Rain = 0
KSC1 131218Z 27009KT 09/04 A2974 RMK A01 T00930040  RH  070%=      5-min Rain = 0
KSC1 131219Z 27011KT 09/04 A2974 RMK A01 T00930040  RH  070%=      5-min Rain = 0
KSC1 131220Z 27010KT 09/04 A2974 RMK A01 T00930040  RH  069%=      5-min Rain = 0
KSC1 131221Z 27010KT 09/04 A2974 RMK A01 T00930039  RH  069%=      5-min Rain = 0
KSC1 131222Z 27010KT 09/04 A2974 RMK A01 T00940039  RH  069%=      5-min Rain = 0
KSC1 131223Z 28010KT 09/04 A2975 RMK A01 T00930039  RH  069%=      5-min Rain = 0
KSC1 131224Z 28010KT 09/04 A2975 RMK A01 T00940038  RH  068%=      5-min Rain = 0
KSC1 131225Z 28009KT 09/04 A2975 RMK A01 T00940038  RH  068%=      5-min Rain = 0
KSC1 131226Z 28008KT 10/04 A2975 RMK A01 T00950038  RH  068%=      5-min Rain = 0
KSC1 131227Z 28011KT 10/04 A2975 RMK A01 T00950038  RH  068%=      5-min Rain = 0
KSC1 131228Z 29015G21KT 10/04 A2975 RMK A01 T00950035  RH  066%=      5-min Rain = 0
KSC1 131229Z 29016KT 10/03 A2975 RMK A01 T00980033  RH  064%=      5-min Rain = 0
KSC1 131230Z 28014KT 10/03 A2975 RMK A01 T00990031  RH  063%=      5-min Rain = 0
KSC1 131231Z 29013G18KT 10/03 A2975 RMK A01 T01000030  RH  062%=      5-min Rain = 0
KSC1 131232Z 29012G17KT 10/03 A2975 RMK A01 T01000028  RH  061%=      5-min Rain = 0
KSC1 131233Z 28013G19KT 10/03 A2975 RMK A01 T01000029  RH  061%=      5-min Rain = 0
KSC1 131234Z 28015G20KT 10/03 A2975 RMK A01 T01000028  RH  061%=      5-min Rain = 0
KSC1 131235Z 28016G23KT 10/03 A2975 RMK A01 T01000027  RH  060%=      5-min Rain = 0
KSC1 131236Z 29019G24KT 10/02 A2975 RMK A01 T01000024  RH  059%=      5-min Rain = 0
KSC1 131237Z 28016G21KT 10/02 A2975 RMK A01 T01010022  RH  058%=      5-min Rain = 0
KSC1 131238Z 28015KT 10/02 A2976 RMK A01 T01010022  RH  058%=      5-min Rain = 0
KSC1 131239Z 28012G17KT 10/02 A2976 RMK A01 T01010022  RH  058%=      5-min Rain = 0
KSC1 131240Z 28015KT 10/02 A2976 RMK A01 T01000022  RH  058%=      5-min Rain = 0
KSC1 131241Z 29014G19KT 10/02 A2976 RMK A01 T00990019  RH  058%=      5-min Rain = 0
KSC1 131242Z 28012KT 10/02 A2976 RMK A01 T00990019  RH  058%=      5-min Rain = 0
KSC1 131243Z 29021G29KT 10/02 A2977 RMK A01 T00990018  RH  057%=      5-min Rain = 0
KSC1 131244Z 29018G25KT 10/01 A2977 RMK A01 T00990012  RH  055%=      5-min Rain = 0
KSC1 131245Z 29021G31KT 10/01 A2977 RMK A01 T00990010  RH  054%=      5-min Rain = 0
KSC1 131246Z 29026G36KT 10/00 A2977 RMK A01 T00990004  RH  052%=      5-min Rain = 0
KSC1 131247Z 29023G30KT 10/00 A2977 RMK A01 T00990001  RH  050%=      5-min Rain = 0
KSC1 131248Z 30017G30KT 10/00 A2977 RMK A01 T009800-0  RH  050%=      5-min Rain = 0
KSC1 131249Z 30020G31KT 10/00 A2977 RMK A01 T009700-0  RH  051%=      5-min Rain = 0
KSC1 131250Z 30022KT 10/M00 A2978 RMK A01 T00971001  RH  051%=      5-min Rain = 0
KSC1 131251Z 30024G31KT 10/00 A2978 RMK A01 T009600-0  RH  051%=      5-min Rain = 0
KSC1 131252Z 31021G29KT 10/00 A2978 RMK A01 T00950001  RH  052%=      5-min Rain = 0
KSC1 131253Z 31017G25KT 09/00 A2978 RMK A01 T00940003  RH  053%=      5-min Rain = 0
KSC1 131254Z 31024G31KT 09/01 A2978 RMK A01 T00920005  RH  054%=      5-min Rain = 0
KSC1 131255Z 31023G31KT 09/01 A2978 RMK A01 T00900006  RH  056%=      5-min Rain = 0
KSC1 131256Z 31020G28KT 09/01 A2979 RMK A01 T00880008  RH  057%=      5-min Rain = 0
KSC1 131257Z 30020G26KT 09/01 A2979 RMK A01 T00870009  RH  058%=      5-min Rain = 0
KSC1 131258Z 30017G23KT 09/01 A2979 RMK A01 T00860009  RH  058%=      5-min Rain = 0
KSC1 131259Z 30013G18KT 09/01 A2979 RMK A01 T00850010  RH  059%=      5-min Rain = 0
KSC1 131300Z 29014G19KT 08/01 A2979 RMK A01 T00840010  RH  059%=      5-min Rain = 0
KSC1 131301Z 29014KT 08/01 A2979 RMK A01 T00840010  RH  060%=      5-min Rain = 0
KSC1 131302Z 29017G26KT 08/01 A2979 RMK A01 T00820011  RH  061%=      5-min Rain = 0
KSC1 131303Z 29016G22KT 08/01 A2979 RMK A01 T00820012  RH  061%=      5-min Rain = 0
KSC1 131304Z 29015G22KT 08/01 A2979 RMK A01 T00810012  RH  062%=      5-min Rain = 0
KSC1 131305Z 30017G24KT 08/01 A298 RMK A01 T00800013  RH  063%=      5-min Rain = 0
KSC1 131306Z 30015G21KT 08/01 A298 RMK A01 T00790013  RH  063%=      5-min Rain = 0
KSC1 131307Z 30014G19KT 08/01 A298 RMK A01 T00790014  RH  064%=      5-min Rain = 0
KSC1 131308Z 30014G19KT 08/02 A298 RMK A01 T00780015  RH  064%=      5-min Rain = 0
KSC1 131309Z 30016G21KT 08/02 A298 RMK A01 T00780016  RH  065%=      5-min Rain = 0
KSC1 131310Z 30014G20KT 08/02 A298 RMK A01 T00770016  RH  065%=      5-min Rain = 0
KSC1 131311Z 30013G19KT 08/02 A298 RMK A01 T00770017  RH  066%=      5-min Rain = 0
KSC1 131312Z 30020G25KT 08/02 A2979 RMK A01 T00760018  RH  067%=      5-min Rain = 0
KSC1 131313Z 30022KT 08/02 A2979 RMK A01 T00760019  RH  067%=      5-min Rain = 0
KSC1 131314Z 31015G21KT 08/02 A298 RMK A01 T00750019  RH  068%=      5-min Rain = 0
KSC1 131315Z 30013G19KT 07/02 A298 RMK A01 T00740020  RH  069%=      5-min Rain = 0
KSC1 131316Z 31013G18KT 07/02 A298 RMK A01 T00740021  RH  069%=      5-min Rain = 0
KSC1 131317Z 30013KT 07/02 A298 RMK A01 T00730021  RH  070%=      5-min Rain = 0
KSC1 131318Z 31012KT 07/02 A298 RMK A01 T00730022  RH  070%=      5-min Rain = 0
KSC1 131319Z 30011G18KT 07/02 A298 RMK A01 T00720022  RH  070%=      5-min Rain = 0
KSC1 131320Z 31011G16KT 07/02 A298 RMK A01 T00720022  RH  071%=      5-min Rain = 0
KSC1 131321Z 30010G15KT 07/02 A298 RMK A01 T00720022  RH  071%=      5-min Rain = 0
KSC1 131322Z 30014KT 07/02 A298 RMK A01 T00710023  RH  071%=      5-min Rain = 0
KSC1 131323Z 30011KT 07/02 A2981 RMK A01 T00710023  RH  071%=      5-min Rain = 0
KSC1 131324Z 29011KT 07/02 A2981 RMK A01 T00710024  RH  072%=      5-min Rain = 0
KSC1 131325Z 31013KT 07/02 A2981 RMK A01 T00710023  RH  072%=      5-min Rain = 0
KSC1 131326Z 30012KT 07/02 A2981 RMK A01 T00710023  RH  072%=      5-min Rain = 0
KSC1 131327Z 30012KT 07/02 A2981 RMK A01 T00710024  RH  072%=      5-min Rain = 0
KSC1 131328Z 30012KT 07/02 A2982 RMK A01 T00710024  RH  072%=      5-min Rain = 0
KSC1 131329Z 28012G17KT 07/03 A2982 RMK A01 T00710025  RH  072%=      5-min Rain = 0
KSC1 131330Z 28011G16KT 07/03 A2982 RMK A01 T00710025  RH  073%=      5-min Rain = 0
KSC1 131331Z 28012KT 07/03 A2982 RMK A01 T00700025  RH  073%=      5-min Rain = 0
KSC1 131332Z 27012KT 07/03 A2983 RMK A01 T00700026  RH  074%=      5-min Rain = 0
KSC1 131333Z 28013KT 07/03 A2983 RMK A01 T00700026  RH  074%=      5-min Rain = 0
KSC1 131334Z 27010KT 07/03 A2983 RMK A01 T00700027  RH  074%=      5-min Rain = 0
KSC1 131335Z 28013KT 07/03 A2983 RMK A01 T00690027  RH  074%=      5-min Rain = 0
KSC1 131336Z 28012KT 07/03 A2983 RMK A01 T00690026  RH  074%=      5-min Rain = 0
KSC1 131337Z 28012KT 07/03 A2983 RMK A01 T00690027  RH  074%=      5-min Rain = 0
KSC1 131338Z 27014KT 07/03 A2983 RMK A01 T00690027  RH  075%=      5-min Rain = 0
KSC1 131339Z 28015KT 07/03 A2983 RMK A01 T00690027  RH  075%=      5-min Rain = 0
KSC1 131340Z 28011KT 07/03 A2983 RMK A01 T00690027  RH  075%=      5-min Rain = 0
KSC1 131341Z 28009G14KT 07/03 A2983 RMK A01 T00690028  RH  075%=      5-min Rain = 0
KSC1 131342Z 28011KT 07/03 A2983 RMK A01 T00690029  RH  075%=      5-min Rain = 0
KSC1 131343Z 27011KT 07/03 A2983 RMK A01 T00680028  RH  075%=      5-min Rain = 0
KSC1 131344Z 28013KT 07/03 A2983 RMK A01 T00680029  RH  076%=      5-min Rain = 0
KSC1 131345Z 27012KT 07/03 A2983 RMK A01 T00680030  RH  077%=      5-min Rain = 0
KSC1 131346Z 28013G19KT 07/03 A2984 RMK A01 T00680032  RH  078%=      5-min Rain = 0
KSC1 131347Z 27014KT 07/03 A2984 RMK A01 T00670034  RH  079%=      5-min Rain = 0
KSC1 131348Z 27014KT 07/04 A2984 RMK A01 T00650035  RH  081%=      5-min Rain = 0.01
KSC1 131349Z 27012KT 06/04 A2984 RMK A01 T00640037  RH  083%=      5-min Rain = 0
KSC1 131350Z 27013KT 06/04 A2984 RMK A01 T00620038  RH  084%=      5-min Rain = 0
KSC1 131351Z 27015KT 06/04 A2984 RMK A01 T00620039  RH  085%=      5-min Rain = 0.01
KSC1 131352Z 27013KT 06/04 A2984 RMK A01 T00610040  RH  086%=      5-min Rain = 0
KSC1 131353Z 27015KT 06/04 A2984 RMK A01 T00600041  RH  087%=      5-min Rain = 0
KSC1 131354Z 28016KT 06/04 A2983 RMK A01 T00600041  RH  088%=      5-min Rain = 0
KSC1 131355Z 28013KT 06/04 A2983 RMK A01 T00590041  RH  088%=      5-min Rain = 0.01
KSC1 131356Z 28013KT 06/04 A2983 RMK A01 T00590043  RH  089%=      5-min Rain = 0
KSC1 131357Z 28015KT 06/04 A2983 RMK A01 T00580043  RH  090%=      5-min Rain = 0
KSC1 131358Z 28012KT 06/04 A2983 RMK A01 T00580043  RH  090%=      5-min Rain = 0.01
KSC1 131359Z 28014KT 06/04 A2983 RMK A01 T00570044  RH  091%=      5-min Rain = 0
KSC1 131400Z 28013KT 06/04 A2983 RMK A01 T00570044  RH  091%=      5-min Rain = 0
KSC1 131401Z 27013KT 06/04 A2984 RMK A01 T00570044  RH  091%=      5-min Rain = 0
KSC1 131402Z 27011KT 06/05 A2984 RMK A01 T00570045  RH  092%=      5-min Rain = 0.01
KSC1 131403Z 27012KT 06/05 A2984 RMK A01 T00570045  RH  092%=      5-min Rain = 0
KSC1 131404Z 28012KT 06/05 A2984 RMK A01 T00570045  RH  092%=      5-min Rain = 0
KSC1 131405Z 27013KT 06/05 A2984 RMK A01 T00560046  RH  093%=      5-min Rain = 0
KSC1 131406Z 27013KT 06/05 A2984 RMK A01 T00570046  RH  093%=      5-min Rain = 0
KSC1 131407Z 27013KT 06/05 A2984 RMK A01 T00570046  RH  093%=      5-min Rain = 0
KSC1 131408Z 27014G19KT 06/05 A2984 RMK A01 T00570046  RH  093%=      5-min Rain = 0.01
KSC1 131409Z 28012KT 06/05 A2984 RMK A01 T00570046  RH  093%=      5-min Rain = 0
KSC1 131410Z 27012KT 06/05 A2984 RMK A01 T00570046  RH  093%=      5-min Rain = 0
KSC1 131411Z 28014KT 06/05 A2984 RMK A01 T00570046  RH  093%=      5-min Rain = 0
KSC1 131412Z 27011G16KT 06/05 A2984 RMK A01 T00570046  RH  093%=      5-min Rain = 0
KSC1 131413Z 27010KT 06/05 A2985 RMK A01 T00560046  RH  093%=      5-min Rain = 0.01
KSC1 131414Z 27012KT 06/05 A2984 RMK A01 T00560047  RH  094%=      5-min Rain = 0
KSC1 131415Z 28011KT 06/05 A2984 RMK A01 T00560046  RH  094%=      5-min Rain = 0.01
KSC1 131416Z 28010KT 06/05 A2984 RMK A01 T00560047  RH  094%=      5-min Rain = 0
KSC1 131417Z 29008G13KT 06/05 A2984 RMK A01 T00560047  RH  094%=      5-min Rain = 0
KSC1 131418Z 30008KT 06/05 A2984 RMK A01 T00560047  RH  094%=      5-min Rain = 0
KSC1 131419Z 31008KT 06/05 A2983 RMK A01 T00550046  RH  094%=      5-min Rain = 0.01
KSC1 131420Z 33007KT 06/05 A2983 RMK A01 T00550045  RH  093%=      5-min Rain = 0
KSC1 131421Z 33007KT 06/05 A2982 RMK A01 T00550045  RH  093%=      5-min Rain = 0
KSC1 131422Z 33006KT 06/04 A2982 RMK A01 T00550044  RH  092%=      5-min Rain = 0
KSC1 131423Z 33005KT 06/04 A2982 RMK A01 T00560044  RH  092%=      5-min Rain = 0
KSC1 131424Z 33007KT 06/04 A2982 RMK A01 T00560044  RH  093%=      5-min Rain = 0
KSC1 131425Z 32006KT 06/05 A2983 RMK A01 T00560045  RH  093%=      5-min Rain = 0
KSC1 131426Z 30007KT 06/05 A2983 RMK A01 T00560045  RH  093%=      5-min Rain = 0
KSC1 131427Z 30007KT 06/05 A2983 RMK A01 T00560045  RH  093%=      5-min Rain = 0
KSC1 131428Z 30006KT 06/05 A2983 RMK A01 T00560045  RH  093%=      5-min Rain = 0
KSC1 131429Z 31009KT 06/05 A2983 RMK A01 T00560045  RH  093%=      5-min Rain = 0
KSC1 131430Z 31007G13KT 06/05 A2983 RMK A01 T00560045  RH  093%=      5-min Rain = 0
KSC1 131431Z 31010KT 06/05 A2983 RMK A01 T00550045  RH  093%=      5-min Rain = 0
KSC1 131432Z 31007KT 06/04 A2983 RMK A01 T00550044  RH  093%=      5-min Rain = 0
KSC1 131433Z 32009KT 06/05 A2983 RMK A01 T00550045  RH  093%=      5-min Rain = 0
KSC1 131434Z 32007KT 06/04 A2983 RMK A01 T00550044  RH  093%=      5-min Rain = 0
KSC1 131435Z 32007KT 06/05 A2983 RMK A01 T00550045  RH  093%=      5-min Rain = 0
KSC1 131436Z 33009KT 06/05 A2983 RMK A01 T00550046  RH  093%=      5-min Rain = 0
KSC1 131437Z 32007KT 06/05 A2983 RMK A01 T00550045  RH  093%=      5-min Rain = 0
KSC1 131438Z 32007KT 06/05 A2982 RMK A01 T00550045  RH  093%=      5-min Rain = 0
KSC1 131439Z 32009KT 06/05 A2982 RMK A01 T00550045  RH  093%=      5-min Rain = 0
KSC1 131440Z 33008KT 06/05 A2982 RMK A01 T00550045  RH  093%=      5-min Rain = 0
KSC1 131441Z 33007KT 06/05 A2982 RMK A01 T00560045  RH  093%=      5-min Rain = 0
KSC1 131442Z 33008KT 06/05 A2982 RMK A01 T00560045  RH  092%=      5-min Rain = 0
KSC1 131443Z 33008KT 06/04 A2982 RMK A01 T00560044  RH  092%=      5-min Rain = 0.01
KSC1 131444Z 33005KT 06/04 A2982 RMK A01 T00570044  RH  092%=      5-min Rain = 0
KSC1 131445Z 33006KT 06/05 A2982 RMK A01 T00570045  RH  092%=      5-min Rain = 0
KSC1 131446Z 32007KT 06/05 A2982 RMK A01 T00570045  RH  092%=      5-min Rain = 0
KSC1 131447Z 33007KT 06/04 A2982 RMK A01 T00570044  RH  092%=      5-min Rain = 0
KSC1 131448Z 32005KT 06/05 A2982 RMK A01 T00580046  RH  092%=      5-min Rain = 0
KSC1 131449Z 33007KT 06/05 A2982 RMK A01 T00590046  RH  092%=      5-min Rain = 0
KSC1 131450Z 32005KT 06/05 A2982 RMK A01 T00590045  RH  091%=      5-min Rain = 0
KSC1 131451Z 32009KT 06/05 A2982 RMK A01 T00600046  RH  091%=      5-min Rain = 0
KSC1 131452Z 31007G12KT 06/05 A2982 RMK A01 T00600046  RH  091%=      5-min Rain = 0
KSC1 131453Z 31008KT 06/05 A2982 RMK A01 T00600046  RH  091%=      5-min Rain = 0
KSC1 131454Z 31009KT 06/05 A2982 RMK A01 T00610046  RH  090%=      5-min Rain = 0
KSC1 131455Z 32008KT 06/05 A2982 RMK A01 T00610045  RH  090%=      5-min Rain = 0
KSC1 131456Z 32009KT 06/05 A2982 RMK A01 T00610045  RH  090%=      5-min Rain = 0
KSC1 131457Z 31006KT 06/05 A2982 RMK A01 T00610045  RH  090%=      5-min Rain = 0
KSC1 131458Z 32005KT 06/05 A2983 RMK A01 T00610047  RH  091%=      5-min Rain = 0
KSC1 131459Z 32006KT 06/05 A2983 RMK A01 T00610048  RH  092%=      5-min Rain = 0
KSC1 131500Z 31007KT 06/05 A2983 RMK A01 T00610048  RH  091%=      5-min Rain = 0
KSC1 131501Z 32010KT 06/05 A2983 RMK A01 T00610047  RH  091%=      5-min Rain = 0
KSC1 131502Z 31010KT 06/05 A2983 RMK A01 T00610046  RH  090%=      5-min Rain = 0
KSC1 131503Z 31010KT 06/05 A2983 RMK A01 T00610046  RH  090%=      5-min Rain = 0
KSC1 131504Z 32009KT 06/05 A2983 RMK A01 T00610046  RH  090%=      5-min Rain = 0
KSC1 131505Z 32009KT 06/05 A2983 RMK A01 T00600046  RH  090%=      5-min Rain = 0
KSC1 131506Z 31007KT 06/05 A2983 RMK A01 T00600045  RH  090%=      5-min Rain = 0
KSC1 131507Z 31006KT 06/05 A2983 RMK A01 T00590046  RH  091%=      5-min Rain = 0
KSC1 131508Z 30008KT 06/05 A2983 RMK A01 T00590046  RH  091%=      5-min Rain = 0
KSC1 131509Z 31010KT 06/05 A2983 RMK A01 T00590045  RH  091%=      5-min Rain = 0
KSC1 131510Z 31011KT 06/04 A2983 RMK A01 T00590044  RH  090%=      5-min Rain = 0
KSC1 131511Z 31011KT 06/04 A2983 RMK A01 T00590044  RH  090%=      5-min Rain = 0
KSC1 131512Z 31012G17KT 06/04 A2983 RMK A01 T00590043  RH  089%=      5-min Rain = 0
KSC1 131513Z 30010KT 06/04 A2984 RMK A01 T00590041  RH  089%=      5-min Rain = 0
KSC1 131514Z 30011G16KT 06/04 A2984 RMK A01 T00590042  RH  089%=      5-min Rain = 0
KSC1 131515Z 30015KT 06/04 A2984 RMK A01 T00590042  RH  089%=      5-min Rain = 0
KSC1 131516Z 30015KT 06/04 A2984 RMK A01 T00590042  RH  089%=      5-min Rain = 0
KSC1 131517Z 30013KT 06/04 A2984 RMK A01 T00590041  RH  088%=      5-min Rain = 0
KSC1 131518Z 31014KT 06/04 A2984 RMK A01 T00580041  RH  089%=      5-min Rain = 0
KSC1 131519Z 31010G15KT 06/04 A2984 RMK A01 T00580041  RH  089%=      5-min Rain = 0
KSC1 131520Z 30012KT 06/04 A2984 RMK A01 T00580042  RH  089%=      5-min Rain = 0
KSC1 131521Z 31013G19KT 06/04 A2984 RMK A01 T00580042  RH  090%=      5-min Rain = 0
KSC1 131522Z 31009G15KT 06/04 A2985 RMK A01 T00580042  RH  090%=      5-min Rain = 0
KSC1 131523Z 32011KT 06/04 A2985 RMK A01 T00580043  RH  090%=      5-min Rain = 0
KSC1 131524Z 31012KT 06/04 A2985 RMK A01 T00590042  RH  089%=      5-min Rain = 0
KSC1 131525Z 31012KT 06/04 A2985 RMK A01 T00580042  RH  089%=      5-min Rain = 0
KSC1 131526Z 29011G16KT 06/04 A2985 RMK A01 T00580042  RH  090%=      5-min Rain = 0
KSC1 131527Z 30015KT 06/04 A2985 RMK A01 T00580042  RH  089%=      5-min Rain = 0
KSC1 131528Z 30014KT 06/04 A2985 RMK A01 T00580041  RH  088%=      5-min Rain = 0
KSC1 131529Z 30012KT 06/04 A2985 RMK A01 T00580041  RH  089%=      5-min Rain = 0
KSC1 131530Z 31013G20KT 06/04 A2985 RMK A01 T00580041  RH  089%=      5-min Rain = 0
KSC1 131531Z 31011KT 06/04 A2985 RMK A01 T00580042  RH  089%=      5-min Rain = 0
KSC1 131532Z 31014G19KT 06/04 A2985 RMK A01 T00580042  RH  089%=      5-min Rain = 0
KSC1 131533Z 31015KT 06/04 A2985 RMK A01 T00580040  RH  088%=      5-min Rain = 0
KSC1 131534Z 30013KT 06/04 A2986 RMK A01 T00580039  RH  088%=      5-min Rain = 0
KSC1 131535Z 31013G18KT 06/04 A2986 RMK A01 T00580039  RH  088%=      5-min Rain = 0
KSC1 131536Z 31015G20KT 06/04 A2986 RMK A01 T00580039  RH  088%=      5-min Rain = 0
KSC1 131537Z 30010G15KT 06/04 A2986 RMK A01 T00580039  RH  087%=      5-min Rain = 0
KSC1 131538Z 31009KT 06/04 A2986 RMK A01 T00580040  RH  088%=      5-min Rain = 0
KSC1 131539Z 31012KT 06/04 A2986 RMK A01 T00580039  RH  088%=      5-min Rain = 0
KSC1 131540Z 30013KT 06/04 A2986 RMK A01 T00570038  RH  087%=      5-min Rain = 0
KSC1 131541Z 31012G18KT 06/04 A2986 RMK A01 T00570038  RH  087%=      5-min Rain = 0
KSC1 131542Z 31012KT 06/04 A2986 RMK A01 T00570038  RH  087%=      5-min Rain = 0
KSC1 131543Z 31010KT 06/04 A2986 RMK A01 T00570038  RH  087%=      5-min Rain = 0
KSC1 131544Z 31010KT 06/04 A2986 RMK A01 T00570038  RH  088%=      5-min Rain = 0
KSC1 131545Z 31014G19KT 06/04 A2986 RMK A01 T00570037  RH  087%=      5-min Rain = 0
KSC1 131546Z 31014G20KT 06/04 A2986 RMK A01 T00570035  RH  086%=      5-min Rain = 0
KSC1 131547Z 32014KT 06/04 A2986 RMK A01 T00560035  RH  086%=      5-min Rain = 0
KSC1 131548Z 32014KT 06/03 A2986 RMK A01 T00560034  RH  086%=      5-min Rain = 0
KSC1 131549Z 33016G21KT 06/03 A2986 RMK A01 T00560034  RH  086%=      5-min Rain = 0
KSC1 131550Z 32014G19KT 06/03 A2986 RMK A01 T00560034  RH  086%=      5-min Rain = 0
KSC1 131551Z 32012KT 06/04 A2986 RMK A01 T00560035  RH  086%=      5-min Rain = 0
KSC1 131552Z 32014KT 06/04 A2986 RMK A01 T00560036  RH  087%=      5-min Rain = 0
KSC1 131553Z 32016KT 06/04 A2986 RMK A01 T00560035  RH  086%=      5-min Rain = 0
KSC1 131554Z 32013KT 06/03 A2986 RMK A01 T00560034  RH  086%=      5-min Rain = 0
KSC1 131555Z 32010G15KT 06/04 A2987 RMK A01 T00560035  RH  087%=      5-min Rain = 0
KSC1 131556Z 32017KT 06/04 A2987 RMK A01 T00560036  RH  087%=      5-min Rain = 0
KSC1 131557Z 31013G18KT 06/03 A2987 RMK A01 T00550034  RH  086%=      5-min Rain = 0
KSC1 131558Z 32014KT 06/04 A2987 RMK A01 T00550035  RH  087%=      5-min Rain = 0
KSC1 131559Z 32012G18KT 06/04 A2987 RMK A01 T00550035  RH  087%=      5-min Rain = 0
KSC1 131600Z 32013KT 06/03 A2987 RMK A01 T00550034  RH  087%=      5-min Rain = 0
KSC1 131601Z 32016KT 05/03 A2987 RMK A01 T00540034  RH  087%=      5-min Rain = 0
KSC1 131602Z 32014KT 05/03 A2987 RMK A01 T00540034  RH  087%=      5-min Rain = 0
KSC1 131603Z 33014KT 05/03 A2988 RMK A01 T00540033  RH  086%=      5-min Rain = 0
KSC1 131604Z 31014KT 05/03 A2988 RMK A01 T00540033  RH  087%=      5-min Rain = 0
KSC1 131605Z 32016KT 05/03 A2988 RMK A01 T00530033  RH  087%=      5-min Rain = 0
KSC1 131606Z 32016KT 05/03 A2988 RMK A01 T00530032  RH  086%=      5-min Rain = 0
KSC1 131607Z 32014G19KT 05/03 A2988 RMK A01 T00520032  RH  086%=      5-min Rain = 0
KSC1 131608Z 32016G21KT 05/03 A2988 RMK A01 T00520031  RH  086%=      5-min Rain = 0
KSC1 131609Z 32015G20KT 05/03 A2988 RMK A01 T00510029  RH  086%=      5-min Rain = 0
KSC1 131610Z 31014KT 05/03 A2988 RMK A01 T00510030  RH  086%=      5-min Rain = 0
KSC1 131611Z 31016KT 05/03 A2988 RMK A01 T00500030  RH  087%=      5-min Rain = 0
KSC1 131612Z 32012KT 05/03 A2988 RMK A01 T00500030  RH  087%=      5-min Rain = 0
KSC1 131613Z 31013G18KT 05/03 A2988 RMK A01 T00500031  RH  087%=      5-min Rain = 0
KSC1 131614Z 31016G21KT 05/03 A2988 RMK A01 T00490031  RH  088%=      5-min Rain = 0
KSC1 131615Z 31016G21KT 05/03 A2988 RMK A01 T00490030  RH  087%=      5-min Rain = 0
KSC1 131616Z 31018KT 05/03 A2988 RMK A01 T00480028  RH  087%=      5-min Rain = 0
KSC1 131617Z 31014G20KT 05/03 A2989 RMK A01 T00470027  RH  087%=      5-min Rain = 0
KSC1 131618Z 31014KT 05/03 A2989 RMK A01 T00470028  RH  087%=      5-min Rain = 0
KSC1 131619Z 31016G22KT 05/03 A2989 RMK A01 T00460028  RH  088%=      5-min Rain = 0
KSC1 131620Z 31014G20KT 05/03 A2989 RMK A01 T00450027  RH  088%=      5-min Rain = 0
KSC1 131621Z 32014KT 05/03 A2989 RMK A01 T00450028  RH  088%=      5-min Rain = 0
KSC1 131622Z 31015KT 05/03 A2989 RMK A01 T00450028  RH  089%=      5-min Rain = 0
KSC1 131623Z 31012G17KT 05/03 A2989 RMK A01 T00450028  RH  089%=      5-min Rain = 0
KSC1 131624Z 31016G21KT 05/03 A2989 RMK A01 T00450029  RH  089%=      5-min Rain = 0
KSC1 131625Z 31016KT 05/03 A2989 RMK A01 T00450028  RH  089%=      5-min Rain = 0
KSC1 131626Z 31011G16KT 05/03 A2989 RMK A01 T00450028  RH  089%=      5-min Rain = 0
KSC1 131627Z 31016KT 05/03 A2989 RMK A01 T00450029  RH  089%=      5-min Rain = 0
KSC1 131628Z 31017G22KT 04/03 A2989 RMK A01 T00440028  RH  089%=      5-min Rain = 0
KSC1 131629Z 32016G21KT 04/03 A2989 RMK A01 T00440028  RH  089%=      5-min Rain = 0
KSC1 131630Z 31013KT 04/03 A2989 RMK A01 T00440027  RH  089%=      5-min Rain = 0
KSC1 131631Z 30015G20KT 04/03 A2989 RMK A01 T00440027  RH  089%=      5-min Rain = 0
KSC1 131632Z 31012G18KT 04/03 A2989 RMK A01 T00440027  RH  089%=      5-min Rain = 0
KSC1 131633Z 31014KT 04/03 A2989 RMK A01 T00440028  RH  089%=      5-min Rain = 0
KSC1 131634Z 30013KT 04/03 A2989 RMK A01 T00430027  RH  089%=      5-min Rain = 0
KSC1 131635Z 31010G16KT 04/03 A2989 RMK A01 T00430027  RH  090%=      5-min Rain = 0
KSC1 131636Z 31014KT 04/03 A2989 RMK A01 T00430027  RH  090%=      5-min Rain = 0
KSC1 131637Z 31015G23KT 04/03 A2989 RMK A01 T00430027  RH  089%=      5-min Rain = 0
KSC1 131638Z 31011G17KT 04/03 A2989 RMK A01 T00420026  RH  089%=      5-min Rain = 0
KSC1 131639Z 31013G18KT 04/03 A299 RMK A01 T00420027  RH  090%=      5-min Rain = 0
KSC1 131640Z 30014KT 04/03 A299 RMK A01 T00420027  RH  090%=      5-min Rain = 0
KSC1 131641Z 30010G15KT 04/03 A299 RMK A01 T00420027  RH  090%=      5-min Rain = 0
KSC1 131642Z 30011KT 04/03 A299 RMK A01 T00420028  RH  091%=      5-min Rain = 0
KSC1 131643Z 31010G15KT 04/03 A299 RMK A01 T00410029  RH  091%=      5-min Rain = 0
KSC1 131644Z 31013G20KT 04/03 A299 RMK A01 T00410029  RH  092%=      5-min Rain = 0
KSC1 131645Z 30016G21KT 04/03 A299 RMK A01 T00410028  RH  091%=      5-min Rain = 0
KSC1 131646Z 30013G20KT 04/03 A299 RMK A01 T00400027  RH  091%=      5-min Rain = 0
KSC1 131647Z 30016G21KT 04/03 A299 RMK A01 T00400027  RH  091%=      5-min Rain = 0
KSC1 131648Z 31015KT 04/03 A299 RMK A01 T00400026  RH  091%=      5-min Rain = 0
KSC1 131649Z 31013G19KT 04/03 A2991 RMK A01 T00400026  RH  091%=      5-min Rain = 0
KSC1 131650Z 30014KT 04/03 A2991 RMK A01 T00390026  RH  091%=      5-min Rain = 0
KSC1 131651Z 30012G17KT 04/03 A2991 RMK A01 T00390026  RH  092%=      5-min Rain = 0
KSC1 131652Z 31014G19KT 04/03 A2991 RMK A01 T00390026  RH  092%=      5-min Rain = 0
KSC1 131653Z 31015KT 04/03 A2991 RMK A01 T00380025  RH  091%=      5-min Rain = 0
KSC1 131654Z 31014KT 04/03 A2991 RMK A01 T00380025  RH  091%=      5-min Rain = 0
KSC1 131655Z 30016KT 04/03 A2991 RMK A01 T00380025  RH  091%=      5-min Rain = 0
KSC1 131656Z 31013KT 04/03 A2991 RMK A01 T00380025  RH  091%=      5-min Rain = 0
KSC1 131657Z 30013KT 04/03 A2991 RMK A01 T00370025  RH  092%=      5-min Rain = 0
KSC1 131658Z 31016KT 04/03 A2991 RMK A01 T00370025  RH  092%=      5-min Rain = 0
KSC1 131659Z 31014KT 04/03 A2991 RMK A01 T00370025  RH  092%=      5-min Rain = 0
KSC1 131700Z 31014G20KT 04/03 A2992 RMK A01 T00370025  RH  092%=      5-min Rain = 0
KSC1 131701Z 31015G20KT 04/03 A2991 RMK A01 T00370025  RH  092%=      5-min Rain = 0
KSC1 131702Z 31015G21KT 04/02 A2992 RMK A01 T00360024  RH  092%=      5-min Rain = 0
KSC1 131703Z 29015KT 04/03 A2991 RMK A01 T00360025  RH  092%=      5-min Rain = 0
KSC1 131704Z 29016KT 04/03 A2992 RMK A01 T00360025  RH  092%=      5-min Rain = 0.01
KSC1 131705Z 29019G24KT 04/02 A2992 RMK A01 T00360024  RH  092%=      5-min Rain = 0
KSC1 131706Z 29016G22KT 04/02 A2992 RMK A01 T00350023  RH  092%=      5-min Rain = 0
KSC1 131707Z 30015G20KT 03/02 A2992 RMK A01 T00340023  RH  093%=      5-min Rain = 0
KSC1 131708Z 30013G20KT 03/02 A2992 RMK A01 T00330023  RH  093%=      5-min Rain = 0
KSC1 131709Z 30012G17KT 03/02 A2992 RMK A01 T00320022  RH  093%=      5-min Rain = 0
KSC1 131710Z 30014KT 03/02 A2992 RMK A01 T00320022  RH  093%=      5-min Rain = 0
KSC1 131711Z 29012G18KT 03/02 A2992 RMK A01 T00310021  RH  093%=      5-min Rain = 0
KSC1 131712Z 30014KT 03/02 A2993 RMK A01 T00300020  RH  094%=      5-min Rain = 0
KSC1 131713Z 30015KT 03/02 A2993 RMK A01 T00290020  RH  094%=      5-min Rain = 0
KSC1 131714Z 29015KT 03/02 A2993 RMK A01 T00280020  RH  094%=      5-min Rain = 0.01
KSC1 131715Z 29012KT 03/02 A2993 RMK A01 T00280020  RH  095%=      5-min Rain = 0
KSC1 131716Z 29012KT 03/02 A2993 RMK A01 T00280020  RH  095%=      5-min Rain = 0
KSC1 131717Z 29013KT 03/02 A2993 RMK A01 T00270021  RH  095%=      5-min Rain = 0
KSC1 131718Z 29016KT 03/02 A2993 RMK A01 T00270021  RH  096%=      5-min Rain = 0
KSC1 131719Z 29012G17KT 03/02 A2993 RMK A01 T00270020  RH  095%=      5-min Rain = 0
KSC1 131720Z 28012KT 03/02 A2993 RMK A01 T00260019  RH  095%=      5-min Rain = 0
KSC1 131721Z 29012KT 03/02 A2993 RMK A01 T00260020  RH  096%=      5-min Rain = 0
KSC1 131722Z 29011G17KT 03/02 A2993 RMK A01 T00260020  RH  096%=      5-min Rain = 0.01
KSC1 131723Z 29013KT 03/02 A2993 RMK A01 T00260020  RH  096%=      5-min Rain = 0
KSC1 131724Z 28011G16KT 03/02 A2993 RMK A01 T00250020  RH  096%=      5-min Rain = 0
KSC1 131725Z 29015KT 03/02 A2993 RMK A01 T00250020  RH  096%=      5-min Rain = 0
KSC1 131726Z 28013KT 03/02 A2993 RMK A01 T00250020  RH  097%=      5-min Rain = 0
KSC1 131727Z 29011KT 03/02 A2993 RMK A01 T00250020  RH  097%=      5-min Rain = 0
KSC1 131728Z 29013KT 03/02 A2993 RMK A01 T00250020  RH  097%=      5-min Rain = 0
KSC1 131729Z 29015KT 03/02 A2993 RMK A01 T00250020  RH  097%=      5-min Rain = 0.01
KSC1 131730Z 29012KT 03/02 A2993 RMK A01 T00250020  RH  097%=      5-min Rain = 0
KSC1 131731Z 29014KT 03/02 A2993 RMK A01 T00250020  RH  097%=      5-min Rain = 0
KSC1 131732Z 30012KT 03/02 A2993 RMK A01 T00250020  RH  097%=      5-min Rain = 0
KSC1 131733Z 30014KT 03/02 A2993 RMK A01 T00250020  RH  097%=      5-min Rain = 0
KSC1 131734Z 29017G22KT 02/02 A2993 RMK A01 T00240019  RH  097%=      5-min Rain = 0
KSC1 131735Z 30014G20KT 02/02 A2993 RMK A01 T00230017  RH  096%=      5-min Rain = 0
KSC1 131736Z 29014KT 02/02 A2993 RMK A01 T00220016  RH  096%=      5-min Rain = 0.01
KSC1 131737Z 30012G17KT 02/02 A2994 RMK A01 T00210015  RH  096%=      5-min Rain = 0
KSC1 131738Z 30016KT 02/02 A2994 RMK A01 T00200015  RH  096%=      5-min Rain = 0
KSC1 131739Z 29013KT 02/01 A2994 RMK A01 T00190014  RH  096%=      5-min Rain = 0
KSC1 131740Z 29013KT 02/01 A2994 RMK A01 T00190014  RH  097%=      5-min Rain = 0.01
KSC1 131741Z 30011G17KT 02/01 A2994 RMK A01 T00180014  RH  097%=      5-min Rain = 0
KSC1 131742Z 30013G18KT 02/01 A2994 RMK A01 T00180014  RH  097%=      5-min Rain = 0
KSC1 131743Z 30014KT 02/01 A2994 RMK A01 T00180013  RH  097%=      5-min Rain = 0
KSC1 131744Z 30014KT 02/01 A2994 RMK A01 T00170013  RH  097%=      5-min Rain = 0
KSC1 131745Z 30012G18KT 02/01 A2994 RMK A01 T00170012  RH  097%=      5-min Rain = 0.01
KSC1 131746Z 30013KT 02/01 A2994 RMK A01 T00160012  RH  097%=      5-min Rain = 0
KSC1 131747Z 29013KT 02/01 A2994 RMK A01 T00160012  RH  097%=      5-min Rain = 0
KSC1 131748Z 30014G19KT 02/01 A2994 RMK A01 T00160012  RH  097%=      5-min Rain = 0
KSC1 131749Z 30013G18KT 02/01 A2994 RMK A01 T00160012  RH  098%=      5-min Rain = 0
KSC1 131750Z 30011KT 02/01 A2994 RMK A01 T00150012  RH  098%=      5-min Rain = 0
KSC1 131751Z 29011KT 02/01 A2994 RMK A01 T00150012  RH  098%=      5-min Rain = 0.01
KSC1 131752Z 29015KT 02/01 A2994 RMK A01 T00150012  RH  098%=      5-min Rain = 0
KSC1 131753Z 29012KT 02/01 A2994 RMK A01 T00150013  RH  098%=      5-min Rain = 0
KSC1 131754Z 30013KT 02/01 A2994 RMK A01 T00150013  RH  098%=      5-min Rain = 0
KSC1 131755Z 29013KT 02/01 A2994 RMK A01 T00150013  RH  098%=      5-min Rain = 0
KSC1 131756Z 30010G15KT 02/01 A2994 RMK A01 T00160014  RH  098%=      5-min Rain = 0
KSC1 131757Z 29010KT 02/01 A2994 RMK A01 T00160014  RH  099%=      5-min Rain = 0
KSC1 131758Z 29013G19KT 02/01 A2994 RMK A01 T00160014  RH  099%=      5-min Rain = 0
KSC1 131759Z 29012KT 02/01 A2994 RMK A01 T00160014  RH  099%=      5-min Rain = 0.01
KSC1 131800Z 29011G17KT 02/02 A2994 RMK A01 T00170015  RH  099%=      5-min Rain = 0
KSC1 131801Z 30010KT 02/02 A2994 RMK A01 T00170015  RH  099%=      5-min Rain = 0
KSC1 131802Z 30011KT 02/02 A2994 RMK A01 T00170015  RH  099%=      5-min Rain = 0
KSC1 131803Z 29009G16KT 02/02 A2994 RMK A01 T00170015  RH  099%=      5-min Rain = 0
KSC1 131804Z 30015KT 02/02 A2994 RMK A01 T00170016  RH  099%=      5-min Rain = 0
KSC1 131805Z 29012KT 02/02 A2994 RMK A01 T00180016  RH  099%=      5-min Rain = 0
KSC1 131806Z 29011KT 02/02 A2994 RMK A01 T00180016  RH  099%=      5-min Rain = 0
KSC1 131807Z 30012KT 02/02 A2994 RMK A01 T00170015  RH  099%=      5-min Rain = 0
KSC1 131808Z 29011G17KT 02/02 A2994 RMK A01 T00170015  RH  099%=      5-min Rain = 0
KSC1 131809Z 29010KT 02/02 A2994 RMK A01 T00170015  RH  099%=      5-min Rain = 0
KSC1 131810Z 29012KT 02/02 A2994 RMK A01 T00170015  RH  099%=      5-min Rain = 0.01
KSC1 131811Z 29012G17KT 02/01 A2994 RMK A01 T00170014  RH  098%=      5-min Rain = 0
KSC1 131812Z 29014KT 02/01 A2994 RMK A01 T00160014  RH  098%=      5-min Rain = 0
KSC1 131813Z 29014G19KT 02/01 A2994 RMK A01 T00160013  RH  098%=      5-min Rain = 0
KSC1 131814Z 29016G21KT 02/01 A2994 RMK A01 T00160013  RH  098%=      5-min Rain = 0
KSC1 131815Z 29011KT 02/01 A2994 RMK A01 T00160013  RH  098%=      5-min Rain = 0
KSC1 131816Z 30015G20KT 02/01 A2994 RMK A01 T00160013  RH  098%=      5-min Rain = 0
KSC1 131817Z 30016KT 02/01 A2994 RMK A01 T00160013  RH  098%=      5-min Rain = 0
KSC1 131818Z 29013G21KT 02/01 A2994 RMK A01 T00160014  RH  098%=      5-min Rain = 0
KSC1 131819Z 29011KT 02/01 A2994 RMK A01 T00160014  RH  098%=      5-min Rain = 0.01
KSC1 131820Z 29017KT 02/02 A2994 RMK A01 T00170015  RH  098%=      5-min Rain = 0
KSC1 131821Z 30013KT 02/02 A2994 RMK A01 T00170015  RH  098%=      5-min Rain = 0
KSC1 131822Z 30012G17KT 02/02 A2994 RMK A01 T00180015  RH  098%=      5-min Rain = 0
KSC1 131823Z 29015G21KT 02/02 A2994 RMK A01 T00180016  RH  098%=      5-min Rain = 0
KSC1 131824Z 30014KT 02/02 A2994 RMK A01 T00190017  RH  098%=      5-min Rain = 0
KSC1 131825Z 30017G25KT 02/02 A2994 RMK A01 T00190017  RH  098%=      5-min Rain = 0
KSC1 131826Z 30016KT 02/02 A2994 RMK A01 T00190016  RH  098%=      5-min Rain = 0
KSC1 131827Z 30015G22KT 02/02 A2994 RMK A01 T00200016  RH  098%=      5-min Rain = 0
KSC1 131828Z 30018G24KT 02/02 A2994 RMK A01 T00200017  RH  098%=      5-min Rain = 0
KSC1 131829Z 30017G22KT 02/02 A2994 RMK A01 T00200016  RH  097%=      5-min Rain = 0.01
KSC1 131830Z 29015G20KT 02/02 A2994 RMK A01 T00210017  RH  097%=      5-min Rain = 0
KSC1 131831Z 30013G20KT 02/02 A2994 RMK A01 T00210017  RH  097%=      5-min Rain = 0
KSC1 131832Z 30014G19KT 02/02 A2994 RMK A01 T00220017  RH  097%=      5-min Rain = 0
KSC1 131833Z 30014G19KT 02/02 A2994 RMK A01 T00220018  RH  097%=      5-min Rain = 0
KSC1 131834Z 30014G20KT 02/02 A2994 RMK A01 T00220018  RH  097%=      5-min Rain = 0
KSC1 131835Z 30016KT 02/02 A2994 RMK A01 T00230018  RH  097%=      5-min Rain = 0
KSC1 131836Z 30016G23KT 02/02 A2994 RMK A01 T00230019  RH  097%=      5-min Rain = 0
KSC1 131837Z 30018KT 02/02 A2994 RMK A01 T00240019  RH  097%=      5-min Rain = 0.01
KSC1 131838Z 30016G21KT 03/02 A2994 RMK A01 T00250020  RH  097%=      5-min Rain = 0
KSC1 131839Z 30018KT 03/02 A2994 RMK A01 T00250020  RH  096%=      5-min Rain = 0
KSC1 131840Z 30014G19KT 03/02 A2994 RMK A01 T00260019  RH  096%=      5-min Rain = 0
KSC1 131841Z 31011KT 03/02 A2994 RMK A01 T00260020  RH  096%=      5-min Rain = 0
KSC1 131842Z 30014G25KT 03/02 A2994 RMK A01 T00270021  RH  096%=      5-min Rain = 0
KSC1 131843Z 31014G21KT 03/02 A2994 RMK A01 T00270021  RH  096%=      5-min Rain = 0
KSC1 131844Z 30015G20KT 03/02 A2994 RMK A01 T00270021  RH  096%=      5-min Rain = 0
KSC1 131845Z 30016G22KT 03/02 A2994 RMK A01 T00270021  RH  096%=      5-min Rain = 0
KSC1 131846Z 30019G24KT 03/02 A2994 RMK A01 T00270020  RH  095%=      5-min Rain = 0
KSC1 131847Z 30016KT 03/02 A2994 RMK A01 T00270019  RH  095%=      5-min Rain = 0
KSC1 131848Z 30017G22KT 03/02 A2994 RMK A01 T00270019  RH  095%=      5-min Rain = 0
KSC1 131849Z 30017G22KT 03/02 A2994 RMK A01 T00270019  RH  095%=      5-min Rain = 0.01
KSC1 131850Z 30016G22KT 03/02 A2994 RMK A01 T00270019  RH  095%=      5-min Rain = 0
KSC1 131851Z 30015G21KT 03/02 A2994 RMK A01 T00270019  RH  095%=      5-min Rain = 0
KSC1 131852Z 30018G24KT 03/02 A2994 RMK A01 T00260019  RH  095%=      5-min Rain = 0
KSC1 131853Z 30016G22KT 03/02 A2994 RMK A01 T00260019  RH  095%=      5-min Rain = 0
KSC1 131854Z 30015G22KT 03/02 A2994 RMK A01 T00260019  RH  095%=      5-min Rain = 0
KSC1 131855Z 30016G24KT 03/02 A2994 RMK A01 T00260019  RH  095%=      5-min Rain = 0
KSC1 131856Z 30019G25KT 03/02 A2994 RMK A01 T00250019  RH  095%=      5-min Rain = 0
KSC1 131857Z 30015KT 03/02 A2994 RMK A01 T00250018  RH  095%=      5-min Rain = 0
KSC1 131858Z 31016KT 03/02 A2994 RMK A01 T00250018  RH  095%=      5-min Rain = 0
KSC1 131859Z 30014G21KT 03/02 A2994 RMK A01 T00250019  RH  095%=      5-min Rain = 0
KSC1 131900Z 30011G16KT 03/02 A2994 RMK A01 T00250019  RH  095%=      5-min Rain = 0
KSC1 131901Z 30019G24KT 03/02 A2994 RMK A01 T00250019  RH  096%=      5-min Rain = 0
KSC1 131902Z 30015G20KT 03/02 A2994 RMK A01 T00250019  RH  095%=      5-min Rain = 0
KSC1 131903Z 30018G28KT 03/02 A2995 RMK A01 T00260019  RH  096%=      5-min Rain = 0
KSC1 131904Z 30021KT 03/02 A2994 RMK A01 T00250018  RH  095%=      5-min Rain = 0
KSC1 131905Z 30020G27KT 02/02 A2994 RMK A01 T00240017  RH  095%=      5-min Rain = 0
KSC1 131906Z 30018KT 02/02 A2994 RMK A01 T00240016  RH  095%=      5-min Rain = 0
KSC1 131907Z 30015G21KT 02/02 A2995 RMK A01 T00240016  RH  095%=      5-min Rain = 0
KSC1 131908Z 30016KT 02/02 A2994 RMK A01 T00240017  RH  095%=      5-min Rain = 0
KSC1 131909Z 30017KT 02/02 A2995 RMK A01 T00230017  RH  095%=      5-min Rain = 0
KSC1 131910Z 29017G22KT 02/02 A2994 RMK A01 T00230016  RH  095%=      5-min Rain = 0.01
KSC1 131911Z 29017G29KT 02/02 A2995 RMK A01 T00230016  RH  096%=      5-min Rain = 0
KSC1 131912Z 29016KT 02/02 A2995 RMK A01 T00220016  RH  095%=      5-min Rain = 0
KSC1 131913Z 30017G24KT 02/02 A2994 RMK A01 T00210015  RH  096%=      5-min Rain = 0
KSC1 131914Z 29016G21KT 02/02 A2995 RMK A01 T00210015  RH  096%=      5-min Rain = 0
KSC1 131915Z 29017G23KT 02/01 A2995 RMK A01 T00200014  RH  096%=      5-min Rain = 0
KSC1 131916Z 29016G21KT 02/01 A2995 RMK A01 T00200014  RH  096%=      5-min Rain = 0
KSC1 131917Z 29018G25KT 02/01 A2995 RMK A01 T00190014  RH  096%=      5-min Rain = 0
KSC1 131918Z 29019KT 02/01 A2995 RMK A01 T00190014  RH  097%=      5-min Rain = 0.01
KSC1 131919Z 29015G20KT 02/01 A2995 RMK A01 T00190014  RH  097%=      5-min Rain = 0
KSC1 131920Z 28018G23KT 02/01 A2995 RMK A01 T00180014  RH  097%=      5-min Rain = 0
KSC1 131921Z 29017G23KT 02/01 A2995 RMK A01 T00180013  RH  097%=      5-min Rain = 0
KSC1 131922Z 29016KT 02/01 A2995 RMK A01 T00180013  RH  097%=      5-min Rain = 0
KSC1 131923Z 29016KT 02/01 A2995 RMK A01 T00180014  RH  097%=      5-min Rain = 0
KSC1 131924Z 29015G21KT 02/01 A2995 RMK A01 T00180014  RH  097%=      5-min Rain = 0
KSC1 131925Z 29017KT 02/01 A2995 RMK A01 T00180014  RH  097%=      5-min Rain = 0
KSC1 131926Z 29018G23KT 02/01 A2995 RMK A01 T00170014  RH  097%=      5-min Rain = 0
KSC1 131927Z 30018G23KT 02/01 A2995 RMK A01 T00170014  RH  097%=      5-min Rain = 0.01
KSC1 131928Z 29016G22KT 02/01 A2995 RMK A01 T00180014  RH  097%=      5-min Rain = 0
KSC1 131929Z 29014G19KT 02/01 A2995 RMK A01 T00180014  RH  097%=      5-min Rain = 0
KSC1 131930Z 29017G23KT 02/02 A2995 RMK A01 T00180015  RH  098%=      5-min Rain = 0
KSC1 131931Z 29016KT 02/02 A2995 RMK A01 T00180015  RH  097%=      5-min Rain = 0
KSC1 131932Z 29019KT 02/02 A2995 RMK A01 T00190015  RH  097%=      5-min Rain = 0
KSC1 131933Z 29017G24KT 02/02 A2995 RMK A01 T00190015  RH  097%=      5-min Rain = 0
KSC1 131934Z 29016KT 02/02 A2995 RMK A01 T00190015  RH  097%=      5-min Rain = 0.01
KSC1 131935Z 30014G19KT 02/02 A2995 RMK A01 T00200016  RH  097%=      5-min Rain = 0
KSC1 131936Z 29016G21KT 02/02 A2995 RMK A01 T00210017  RH  098%=      5-min Rain = 0
KSC1 131937Z 29016KT 02/02 A2995 RMK A01 T00220018  RH  098%=      5-min Rain = 0
KSC1 131938Z 29019G25KT 02/02 A2995 RMK A01 T00220019  RH  097%=      5-min Rain = 0
KSC1 131939Z 29019KT 02/02 A2995 RMK A01 T00230019  RH  097%=      5-min Rain = 0
KSC1 131940Z 30021G27KT 02/02 A2995 RMK A01 T00230018  RH  096%=      5-min Rain = 0
KSC1 131941Z 29019G24KT 02/02 A2995 RMK A01 T00240018  RH  096%=      5-min Rain = 0
KSC1 131942Z 30019KT 02/02 A2995 RMK A01 T00240018  RH  096%=      5-min Rain = 0
KSC1 131943Z 30014G19KT 02/02 A2995 RMK A01 T00240018  RH  096%=      5-min Rain = 0.01
KSC1 131944Z 29014G19KT 03/02 A2995 RMK A01 T00250019  RH  096%=      5-min Rain = 0
KSC1 131945Z 30020G26KT 03/02 A2995 RMK A01 T00250019  RH  096%=      5-min Rain = 0
KSC1 131946Z 30019G25KT 03/02 A2995 RMK A01 T00250018  RH  096%=      5-min Rain = 0
KSC1 131947Z 30016KT 03/02 A2995 RMK A01 T00250019  RH  095%=      5-min Rain = 0
KSC1 131948Z 31017G23KT 03/02 A2995 RMK A01 T00260019  RH  096%=      5-min Rain = 0
KSC1 131949Z 30013G19KT 03/02 A2995 RMK A01 T00260020  RH  095%=      5-min Rain = 0
KSC1 131950Z 30017G23KT 03/02 A2995 RMK A01 T00270020  RH  096%=      5-min Rain = 0
KSC1 131951Z 31014G20KT 03/02 A2995 RMK A01 T00270021  RH  095%=      5-min Rain = 0.01
KSC1 131952Z 31021G26KT 03/02 A2995 RMK A01 T00280021  RH  095%=      5-min Rain = 0
KSC1 131953Z 31017G22KT 03/02 A2995 RMK A01 T00280020  RH  095%=      5-min Rain = 0
KSC1 131954Z 31016G24KT 03/02 A2996 RMK A01 T00280020  RH  094%=      5-min Rain = 0
KSC1 131955Z 31012KT 03/02 A2996 RMK A01 T00280020  RH  094%=      5-min Rain = 0
KSC1 131956Z 30011G18KT 03/02 A2996 RMK A01 T00280021  RH  095%=      5-min Rain = 0
KSC1 131957Z 30017G23KT 03/02 A2996 RMK A01 T00280022  RH  095%=      5-min Rain = 0
KSC1 131958Z 30013G18KT 03/02 A2996 RMK A01 T00280021  RH  095%=      5-min Rain = 0
KSC1 131959Z 30017G22KT 03/02 A2996 RMK A01 T00280021  RH  095%=      5-min Rain = 0
KSC1 132000Z 30015G22KT 03/02 A2996 RMK A01 T00270020  RH  095%=      5-min Rain = 0
KSC1 132001Z 30011G20KT 03/02 A2996 RMK A01 T00270020  RH  095%=      5-min Rain = 0
KSC1 132002Z 31009G16KT 03/02 A2996 RMK A01 T00270020  RH  096%=      5-min Rain = 0
KSC1 132003Z 29014G23KT 03/02 A2996 RMK A01 T00270021  RH  096%=      5-min Rain = 0.01
KSC1 132004Z 30021G30KT 03/02 A2996 RMK A01 T00270021  RH  096%=      5-min Rain = 0
KSC1 132005Z 30019G25KT 03/02 A2996 RMK A01 T00260019  RH  095%=      5-min Rain = 0
KSC1 132006Z 30020KT 03/02 A2996 RMK A01 T00260018  RH  095%=      5-min Rain = 0
KSC1 132007Z 30016G24KT 03/02 A2996 RMK A01 T00260018  RH  094%=      5-min Rain = 0
KSC1 132008Z 31014G21KT 03/02 A2996 RMK A01 T00250017  RH  095%=      5-min Rain = 0
KSC1 132009Z 30017G22KT 03/02 A2996 RMK A01 T00250018  RH  095%=      5-min Rain = 0
KSC1 132010Z 30016G24KT 03/02 A2996 RMK A01 T00250018  RH  095%=      5-min Rain = 0
KSC1 132011Z 31014G22KT 03/02 A2996 RMK A01 T00250019  RH  095%=      5-min Rain = 0.01
KSC1 132012Z 30017G25KT 03/02 A2996 RMK A01 T00250018  RH  095%=      5-min Rain = 0
KSC1 132013Z 31020G25KT 03/02 A2996 RMK A01 T00250018  RH  095%=      5-min Rain = 0
KSC1 132014Z 31015G23KT 03/02 A2997 RMK A01 T00250018  RH  095%=      5-min Rain = 0
KSC1 132015Z 31017G23KT 03/02 A2996 RMK A01 T00260018  RH  095%=      5-min Rain = 0
KSC1 132016Z 31015G21KT 03/02 A2996 RMK A01 T00260019  RH  095%=      5-min Rain = 0
KSC1 132017Z 30015KT 03/02 A2996 RMK A01 T00260018  RH  095%=      5-min Rain = 0
KSC1 132018Z 31020KT 03/02 A2996 RMK A01 T00260018  RH  095%=      5-min Rain = 0
KSC1 132019Z 30021KT 03/02 A2996 RMK A01 T00260018  RH  095%=      5-min Rain = 0
KSC1 132020Z 30017G22KT 03/02 A2996 RMK A01 T00260018  RH  094%=      5-min Rain = 0.01
KSC1 132021Z 30017G22KT 03/02 A2997 RMK A01 T00260018  RH  094%=      5-min Rain = 0
KSC1 132022Z 30015G22KT 03/02 A2997 RMK A01 T00260018  RH  094%=      5-min Rain = 0
KSC1 132023Z 30015KT 03/02 A2997 RMK A01 T00260018  RH  095%=      5-min Rain = 0
KSC1 132024Z 30018G25KT 03/02 A2997 RMK A01 T00260019  RH  095%=      5-min Rain = 0
KSC1 132025Z 30015G22KT 03/02 A2997 RMK A01 T00260019  RH  095%=      5-min Rain = 0
KSC1 132026Z 30013G19KT 03/02 A2997 RMK A01 T00260019  RH  095%=      5-min Rain = 0
KSC1 132027Z 30017G23KT 03/02 A2997 RMK A01 T00260019  RH  095%=      5-min Rain = 0.01
KSC1 132028Z 30020G28KT 03/02 A2997 RMK A01 T00260019  RH  095%=      5-min Rain = 0
KSC1 132029Z 30015G20KT 03/02 A2997 RMK A01 T00260018  RH  095%=      5-min Rain = 0
KSC1 132030Z 30017G25KT 03/02 A2997 RMK A01 T00260019  RH  095%=      5-min Rain = 0
KSC1 132031Z 30014G22KT 03/02 A2997 RMK A01 T00260019  RH  095%=      5-min Rain = 0
KSC1 132032Z 30014G22KT 03/02 A2997 RMK A01 T00260019  RH  095%=      5-min Rain = 0
KSC1 132033Z 30017G23KT 03/02 A2997 RMK A01 T00260019  RH  095%=      5-min Rain = 0
KSC1 132034Z 31015G20KT 03/02 A2997 RMK A01 T00260018  RH  095%=      5-min Rain = 0.01
KSC1 132035Z 30016G24KT 03/02 A2997 RMK A01 T00260018  RH  095%=      5-min Rain = 0
KSC1 132036Z 30016G23KT 03/02 A2997 RMK A01 T00260018  RH  095%=      5-min Rain = 0
KSC1 132037Z 31013G18KT 03/02 A2997 RMK A01 T00260019  RH  095%=      5-min Rain = 0
KSC1 132038Z 30015G27KT 03/02 A2997 RMK A01 T00260019  RH  095%=      5-min Rain = 0
KSC1 132039Z 30018G24KT 03/02 A2997 RMK A01 T00260019  RH  095%=      5-min Rain = 0
KSC1 132040Z 30017G27KT 03/02 A2997 RMK A01 T00260019  RH  095%=      5-min Rain = 0.01
KSC1 132041Z 29017G25KT 03/02 A2997 RMK A01 T00260019  RH  095%=      5-min Rain = 0
KSC1 132042Z 30019G24KT 03/02 A2997 RMK A01 T00250019  RH  095%=      5-min Rain = 0
KSC1 132043Z 29019KT 03/02 A2997 RMK A01 T00250018  RH  095%=      5-min Rain = 0
KSC1 132044Z 30018G24KT 03/02 A2997 RMK A01 T00250017  RH  095%=      5-min Rain = 0
KSC1 132045Z 30017G22KT 02/02 A2997 RMK A01 T00240017  RH  095%=      5-min Rain = 0
KSC1 132046Z 30018KT 03/02 A2997 RMK A01 T00250018  RH  095%=      5-min Rain = 0
KSC1 132047Z 30015G22KT 02/02 A2997 RMK A01 T00240018  RH  095%=      5-min Rain = 0.01
KSC1 132048Z 30018G23KT 02/02 A2997 RMK A01 T00240018  RH  096%=      5-min Rain = 0
KSC1 132049Z 30014G20KT 02/02 A2997 RMK A01 T00240018  RH  096%=      5-min Rain = 0
KSC1 132050Z 30016KT 02/02 A2997 RMK A01 T00240018  RH  096%=      5-min Rain = 0
KSC1 132051Z 30015KT 02/02 A2997 RMK A01 T00240018  RH  096%=      5-min Rain = 0
KSC1 132052Z 30016G24KT 03/02 A2997 RMK A01 T00250019  RH  096%=      5-min Rain = 0.01
KSC1 132053Z 30018G23KT 03/02 A2997 RMK A01 T00250019  RH  096%=      5-min Rain = 0
KSC1 132054Z 30014G19KT 03/02 A2998 RMK A01 T00250019  RH  096%=      5-min Rain = 0
KSC1 132055Z 30020G26KT 03/02 A2998 RMK A01 T00260019  RH  096%=      5-min Rain = 0
KSC1 132056Z 31018G24KT 03/02 A2998 RMK A01 T00260019  RH  096%=      5-min Rain = 0
KSC1 132057Z 30021G29KT 03/02 A2998 RMK A01 T00260019  RH  095%=      5-min Rain = 0
KSC1 132058Z 31017KT 03/02 A2998 RMK A01 T00270019  RH  095%=      5-min Rain = 0
KSC1 132059Z 31018G25KT 03/02 A2998 RMK A01 T00270020  RH  095%=      5-min Rain = 0.01
KSC1 132100Z 30019G27KT 03/02 A2998 RMK A01 T00270020  RH  095%=      5-min Rain = 0
KSC1 132101Z 31017G25KT 03/02 A2998 RMK A01 T00280020  RH  095%=      5-min Rain = 0
KSC1 132102Z 31016G23KT 03/02 A2998 RMK A01 T00280020  RH  095%=      5-min Rain = 0
KSC1 132103Z 30016G24KT 03/02 A2998 RMK A01 T00290021  RH  095%=      5-min Rain = 0.01
KSC1 132104Z 31017KT 03/02 A2998 RMK A01 T00280021  RH  095%=      5-min Rain = 0
KSC1 132105Z 31013G26KT 03/02 A2998 RMK A01 T00290021  RH  095%=      5-min Rain = 0
KSC1 132106Z 31021KT 03/02 A2998 RMK A01 T00290021  RH  095%=      5-min Rain = 0
KSC1 132107Z 31020G26KT 03/02 A2998 RMK A01 T00290021  RH  094%=      5-min Rain = 0
KSC1 132108Z 30019G24KT 03/02 A2998 RMK A01 T00290021  RH  094%=      5-min Rain = 0
KSC1 132109Z 31017G24KT 03/02 A2998 RMK A01 T00290020  RH  094%=      5-min Rain = 0.01
KSC1 132110Z 30016G21KT 03/02 A2998 RMK A01 T00290021  RH  094%=      5-min Rain = 0
KSC1 132111Z 31017G22KT 03/02 A2998 RMK A01 T00300021  RH  094%=      5-min Rain = 0
KSC1 132112Z 30013G19KT 03/02 A2999 RMK A01 T00290021  RH  094%=      5-min Rain = 0
KSC1 132113Z 30020G27KT 03/02 A2999 RMK A01 T00300022  RH  095%=      5-min Rain = 0.01
KSC1 132114Z 30018G26KT 03/02 A2999 RMK A01 T00300021  RH  094%=      5-min Rain = 0
KSC1 132115Z 30019G24KT 03/02 A2999 RMK A01 T00290021  RH  094%=      5-min Rain = 0
KSC1 132116Z 30020G25KT 03/02 A2999 RMK A01 T00290021  RH  094%=      5-min Rain = 0
KSC1 132117Z 30019G24KT 03/02 A2999 RMK A01 T00290021  RH  094%=      5-min Rain = 0
KSC1 132118Z 30015KT 03/02 A2999 RMK A01 T00290021  RH  094%=      5-min Rain = 0
KSC1 132119Z 30014G23KT 03/02 A2999 RMK A01 T00290021  RH  094%=      5-min Rain = 0
KSC1 132120Z 30020KT 03/02 A2999 RMK A01 T00290022  RH  095%=      5-min Rain = 0.01
KSC1 132121Z 31017G26KT 03/02 A2999 RMK A01 T00290021  RH  095%=      5-min Rain = 0
KSC1 132122Z 31019KT 03/02 A2999 RMK A01 T00300021  RH  094%=      5-min Rain = 0
KSC1 132123Z 30016KT 03/02 A2999 RMK A01 T00290022  RH  095%=      5-min Rain = 0
KSC1 132124Z 30017G27KT 03/02 A2999 RMK A01 T00300022  RH  095%=      5-min Rain = 0.01
KSC1 132125Z 31022G27KT 03/02 A2999 RMK A01 T00290022  RH  095%=      5-min Rain = 0
KSC1 132126Z 30014G23KT 03/02 A2999 RMK A01 T00300021  RH  094%=      5-min Rain = 0
KSC1 132127Z 30016G22KT 03/02 A2999 RMK A01 T00300022  RH  094%=      5-min Rain = 0
KSC1 132128Z 30015KT 03/02 A2999 RMK A01 T00300022  RH  094%=      5-min Rain = 0
KSC1 132129Z 30019G25KT 03/02 A2999 RMK A01 T00300022  RH  094%=      5-min Rain = 0
KSC1 132130Z 30016G22KT 03/02 A2999 RMK A01 T00300021  RH  094%=      5-min Rain = 0.01
KSC1 132131Z 30017G22KT 03/02 A2999 RMK A01 T00300021  RH  094%=      5-min Rain = 0
KSC1 132132Z 30017G22KT 03/02 A2999 RMK A01 T00300021  RH  094%=      5-min Rain = 0
KSC1 132133Z 31017KT 03/02 A2999 RMK A01 T00300021  RH  094%=      5-min Rain = 0
KSC1 132134Z 31017KT 03/02 A2999 RMK A01 T00300022  RH  094%=      5-min Rain = 0
KSC1 132135Z 30016G21KT 03/02 A2999 RMK A01 T00300022  RH  094%=      5-min Rain = 0
KSC1 132136Z 31015KT 03/02 A2999 RMK A01 T00300022  RH  094%=      5-min Rain = 0
KSC1 132137Z 30013G22KT 03/02 A30 RMK A01 T00300022  RH  095%=      5-min Rain = 0.01
KSC1 132138Z 31018G24KT 03/02 A30 RMK A01 T00300023  RH  095%=      5-min Rain = 0
KSC1 132139Z 31019G24KT 03/02 A30 RMK A01 T00310022  RH  094%=      5-min Rain = 0
KSC1 132140Z 32018G24KT 03/02 A30 RMK A01 T00310022  RH  094%=      5-min Rain = 0
KSC1 132141Z 31012G17KT 03/02 A30 RMK A01 T00310022  RH  094%=      5-min Rain = 0
KSC1 132142Z 31014KT 03/02 A30 RMK A01 T00310022  RH  094%=      5-min Rain = 0
KSC1 132143Z 32017KT 03/02 A30 RMK A01 T00310023  RH  094%=      5-min Rain = 0
KSC1 132144Z 31017KT 03/02 A30 RMK A01 T00310023  RH  094%=      5-min Rain = 0
KSC1 132145Z 31016G22KT 03/02 A30 RMK A01 T00310023  RH  094%=      5-min Rain = 0.01
KSC1 132146Z 31015G21KT 03/02 A30 RMK A01 T00310023  RH  094%=      5-min Rain = 0
KSC1 132147Z 31016G22KT 03/02 A30 RMK A01 T00310023  RH  094%=      5-min Rain = 0
KSC1 132148Z 31017G24KT 03/02 A30 RMK A01 T00310023  RH  094%=      5-min Rain = 0
KSC1 132149Z 31014G21KT 03/02 A30 RMK A01 T00320023  RH  094%=      5-min Rain = 0
KSC1 132150Z 31015G21KT 03/02 A30 RMK A01 T00320023  RH  094%=      5-min Rain = 0.01
KSC1 132151Z 31015G21KT 03/02 A30 RMK A01 T00320023  RH  094%=      5-min Rain = 0
KSC1 132152Z 30013G19KT 03/02 A30 RMK A01 T00330024  RH  094%=      5-min Rain = 0
KSC1 132153Z 31014G20KT 03/02 A30 RMK A01 T00330024  RH  094%=      5-min Rain = 0
KSC1 132154Z 31016G24KT 03/02 A30 RMK A01 T00330024  RH  094%=      5-min Rain = 0
KSC1 132155Z 31019G24KT 03/02 A30 RMK A01 T00330024  RH  094%=      5-min Rain = 0
KSC1 132156Z 31014KT 03/02 A30 RMK A01 T00340024  RH  093%=      5-min Rain = 0
KSC1 132157Z 31015G23KT 04/02 A30 RMK A01 T00350024  RH  093%=      5-min Rain = 0
KSC1 132158Z 31016KT 03/02 A30 RMK A01 T00340024  RH  093%=      5-min Rain = 0
KSC1 132159Z 31014G23KT 04/03 A30 RMK A01 T00350025  RH  093%=      5-min Rain = 0
KSC1 132200Z 31017G24KT 04/03 A30 RMK A01 T00350025  RH  093%=      5-min Rain = 0.01
KSC1 132201Z 31021G28KT 04/02 A30 RMK A01 T00360024  RH  092%=      5-min Rain = 0
KSC1 132202Z 31017G22KT 04/02 A30 RMK A01 T00370024  RH  091%=      5-min Rain = 0
KSC1 132203Z 31020KT 04/02 A30 RMK A01 T00370024  RH  091%=      5-min Rain = 0
KSC1 132204Z 31020G27KT 04/02 A30 RMK A01 T00370023  RH  090%=      5-min Rain = 0
KSC1 132205Z 31019G24KT 04/02 A30 RMK A01 T00380023  RH  090%=      5-min Rain = 0
KSC1 132206Z 32014KT 04/02 A30 RMK A01 T00380023  RH  090%=      5-min Rain = 0
KSC1 132207Z 31022G27KT 04/02 A30 RMK A01 T00380024  RH  090%=      5-min Rain = 0
KSC1 132208Z 31017KT 04/02 A30 RMK A01 T00380023  RH  090%=      5-min Rain = 0
KSC1 132209Z 31017G25KT 04/02 A30 RMK A01 T00390023  RH  090%=      5-min Rain = 0.01
KSC1 132210Z 31020G26KT 04/02 A30 RMK A01 T00390023  RH  089%=      5-min Rain = 0
KSC1 132211Z 31021G31KT 04/02 A30 RMK A01 T00390021  RH  089%=      5-min Rain = 0
KSC1 132212Z 32024G33KT 04/02 A30 RMK A01 T00390020  RH  087%=      5-min Rain = 0
KSC1 132213Z 32020G29KT 04/02 A30 RMK A01 T00400019  RH  086%=      5-min Rain = 0
KSC1 132214Z 31019KT 04/02 A30 RMK A01 T00400019  RH  086%=      5-min Rain = 0
KSC1 132215Z 32019G25KT 04/02 A30 RMK A01 T00400019  RH  086%=      5-min Rain = 0
KSC1 132216Z 31027G35KT 04/02 A30 RMK A01 T00400018  RH  085%=      5-min Rain = 0
KSC1 132217Z 31023G30KT 04/02 A30 RMK A01 T00400016  RH  084%=      5-min Rain = 0
KSC1 132218Z 31019G28KT 04/02 A30 RMK A01 T00410016  RH  084%=      5-min Rain = 0
KSC1 132219Z 31019G24KT 04/02 A3001 RMK A01 T00400016  RH  084%=      5-min Rain = 0
KSC1 132220Z 31023G31KT 04/02 A30 RMK A01 T00400016  RH  084%=      5-min Rain = 0.01
KSC1 132221Z 31026G33KT 04/02 A30 RMK A01 T00400016  RH  084%=      5-min Rain = 0
KSC1 132222Z 30027G35KT 04/01 A30 RMK A01 T00410014  RH  082%=      5-min Rain = 0
KSC1 132223Z 31024G33KT 04/01 A30 RMK A01 T00410013  RH  082%=      5-min Rain = 0
KSC1 132224Z 30023G29KT 04/01 A30 RMK A01 T00420014  RH  082%=      5-min Rain = 0
KSC1 132225Z 30018G27KT 04/01 A30 RMK A01 T00420014  RH  082%=      5-min Rain = 0
KSC1 132226Z 30018G27KT 04/02 A30 RMK A01 T00420016  RH  084%=      5-min Rain = 0
KSC1 132227Z 30025G30KT 04/02 A30 RMK A01 T00410016  RH  084%=      5-min Rain = 0
KSC1 132228Z 31023G32KT 04/02 A30 RMK A01 T00420015  RH  083%=      5-min Rain = 0
KSC1 132229Z 31024G32KT 04/01 A30 RMK A01 T00420013  RH  081%=      5-min Rain = 0
KSC1 132230Z 30022G29KT 04/01 A30 RMK A01 T00430013  RH  081%=      5-min Rain = 0
KSC1 132231Z 30023G29KT 04/01 A30 RMK A01 T00430013  RH  081%=      5-min Rain = 0
KSC1 132232Z 30024G31KT 04/01 A30 RMK A01 T00440013  RH  080%=      5-min Rain = 0
KSC1 132233Z 30023G30KT 04/01 A30 RMK A01 T00440013  RH  080%=      5-min Rain = 0
KSC1 132234Z 30023G30KT 05/01 A30 RMK A01 T00450012  RH  079%=      5-min Rain = 0
KSC1 132235Z 30021KT 05/01 A30 RMK A01 T00450013  RH  079%=      5-min Rain = 0
KSC1 132236Z 30019G26KT 05/01 A30 RMK A01 T00450013  RH  079%=      5-min Rain = 0
KSC1 132237Z 30017G22KT 05/01 A30 RMK A01 T00450014  RH  080%=      5-min Rain = 0
KSC1 132238Z 30022G30KT 05/02 A30 RMK A01 T00450015  RH  081%=      5-min Rain = 0
KSC1 132239Z 29025G34KT 05/01 A30 RMK A01 T00450013  RH  080%=      5-min Rain = 0
KSC1 132240Z 30018G25KT 05/01 A30 RMK A01 T00460012  RH  079%=      5-min Rain = 0
KSC1 132241Z 30019G28KT 05/01 A30 RMK A01 T00460013  RH  079%=      5-min Rain = 0
KSC1 132242Z 30019G33KT 05/01 A30 RMK A01 T00460013  RH  079%=      5-min Rain = 0
KSC1 132243Z 29018KT 05/01 A30 RMK A01 T00460012  RH  078%=      5-min Rain = 0
KSC1 132244Z 31021G29KT 05/01 A30 RMK A01 T00470010  RH  077%=      5-min Rain = 0
KSC1 132245Z 29018G24KT 05/01 A30 RMK A01 T00480009  RH  076%=      5-min Rain = 0
KSC1 132246Z 30022G30KT 05/01 A30 RMK A01 T00480008  RH  075%=      5-min Rain = 0
KSC1 132247Z 30017G25KT 05/01 A3001 RMK A01 T00490006  RH  073%=      5-min Rain = 0
KSC1 132248Z 30019G26KT 05/01 A3001 RMK A01 T00500007  RH  073%=      5-min Rain = 0
KSC1 132249Z 30015G23KT 05/01 A3001 RMK A01 T00500007  RH  074%=      5-min Rain = 0
KSC1 132250Z 31018G24KT 05/01 A3001 RMK A01 T00500006  RH  073%=      5-min Rain = 0.01
KSC1 132251Z 30016G24KT 05/01 A3001 RMK A01 T00500005  RH  073%=      5-min Rain = 0
KSC1 132252Z 31015G21KT 05/01 A3001 RMK A01 T00510005  RH  072%=      5-min Rain = 0
KSC1 132253Z 31019G28KT 05/00 A3001 RMK A01 T00500004  RH  072%=      5-min Rain = 0
KSC1 132254Z 30017G25KT 05/00 A3001 RMK A01 T00510003  RH  071%=      5-min Rain = 0
KSC1 132255Z 31016KT 05/00 A3001 RMK A01 T00510003  RH  071%=      5-min Rain = 0
KSC1 132256Z 31014KT 05/00 A3001 RMK A01 T00510004  RH  071%=      5-min Rain = 0
KSC1 132257Z 31014G20KT 05/00 A3001 RMK A01 T00510003  RH  071%=      5-min Rain = 0
KSC1 132258Z 31020G28KT 05/00 A3001 RMK A01 T00510002  RH  071%=      5-min Rain = 0
KSC1 132259Z 31017G24KT 05/00 A3001 RMK A01 T00520000  RH  069%=      5-min Rain = 0
KSC1 132300Z 31016G25KT 05/M00 A3001 RMK A01 T00521001  RH  069%=      5-min Rain = 0
KSC1 132301Z 31013KT 05/M00 A3001 RMK A01 T00521001  RH  069%=      5-min Rain = 0
KSC1 132302Z 31013KT 05/M00 A3001 RMK A01 T00521001  RH  069%=      5-min Rain = 0
KSC1 132303Z 31012G19KT 05/00 A3001 RMK A01 T00520000  RH  069%=      5-min Rain = 0
KSC1 132304Z 31014G19KT 05/00 A3001 RMK A01 T00510000  RH  069%=      5-min Rain = 0
KSC1 132305Z 31015KT 05/M00 A3001 RMK A01 T00521002  RH  068%=      5-min Rain = 0
KSC1 132306Z 31017G23KT 05/M00 A3001 RMK A01 T00521003  RH  068%=      5-min Rain = 0
KSC1 132307Z 31017G22KT 05/M00 A3001 RMK A01 T00531004  RH  067%=      5-min Rain = 0
KSC1 132308Z 31018KT 05/M01 A3001 RMK A01 T00531005  RH  066%=      5-min Rain = 0
KSC1 132309Z 31017KT 05/M01 A3001 RMK A01 T00541005  RH  065%=      5-min Rain = 0
KSC1 132310Z 31016KT 05/M01 A3001 RMK A01 T00541005  RH  066%=      5-min Rain = 0
KSC1 132311Z 31020G27KT 05/M01 A3001 RMK A01 T00541007  RH  065%=      5-min Rain = 0
KSC1 132312Z 30017G22KT 06/M01 A3001 RMK A01 T00551008  RH  064%=      5-min Rain = 0
KSC1 132313Z 31018G25KT 06/M01 A3001 RMK A01 T00551008  RH  063%=      5-min Rain = 0
KSC1 132314Z 31022G28KT 06/M01 A3001 RMK A01 T00561010  RH  062%=      5-min Rain = 0
KSC1 132315Z 31021G29KT 06/M01 A3001 RMK A01 T00571012  RH  061%=      5-min Rain = 0
KSC1 132316Z 32025G32KT 06/M01 A3001 RMK A01 T00581013  RH  060%=      5-min Rain = 0
KSC1 132317Z 31024G29KT 06/M01 A3001 RMK A01 T00591013  RH  060%=      5-min Rain = 0
KSC1 132318Z 31021G28KT 06/M01 A3001 RMK A01 T00591014  RH  059%=      5-min Rain = 0
KSC1 132319Z 31020G29KT 06/M01 A3001 RMK A01 T00601014  RH  059%=      5-min Rain = 0
KSC1 132320Z 31017G24KT 06/M01 A3001 RMK A01 T00601013  RH  059%=      5-min Rain = 0
KSC1 132321Z 31021G28KT 06/M01 A3001 RMK A01 T00601013  RH  060%=      5-min Rain = 0
KSC1 132322Z 31018G32KT 06/M01 A3001 RMK A01 T00601014  RH  059%=      5-min Rain = 0
KSC1 132323Z 31024G32KT 06/M01 A3001 RMK A01 T00601013  RH  059%=      5-min Rain = 0
KSC1 132324Z 31020G28KT 06/M02 A3002 RMK A01 T00601015  RH  058%=      5-min Rain = 0
KSC1 132325Z 31015G21KT 06/M01 A3002 RMK A01 T00601014  RH  059%=      5-min Rain = 0
KSC1 132326Z 31016G21KT 06/M01 A3002 RMK A01 T00601013  RH  060%=      5-min Rain = 0
KSC1 132327Z 31020G26KT 06/M01 A3002 RMK A01 T00601014  RH  059%=      5-min Rain = 0
KSC1 132328Z 32025G30KT 06/M02 A3002 RMK A01 T00601016  RH  058%=      5-min Rain = 0
KSC1 132329Z 31023G29KT 06/M02 A3002 RMK A01 T00621018  RH  057%=      5-min Rain = 0
KSC1 132330Z 31021G28KT 06/M02 A3002 RMK A01 T00621018  RH  057%=      5-min Rain = 0
KSC1 132331Z 31020G25KT 06/M02 A3002 RMK A01 T00621018  RH  056%=      5-min Rain = 0
KSC1 132332Z 31017G25KT 06/M02 A3002 RMK A01 T00621018  RH  056%=      5-min Rain = 0
KSC1 132333Z 32018G25KT 06/M02 A3003 RMK A01 T00621018  RH  056%=      5-min Rain = 0
KSC1 132334Z 32016G24KT 06/M02 A3003 RMK A01 T00621017  RH  057%=      5-min Rain = 0
KSC1 132335Z 31019G25KT 06/M02 A3003 RMK A01 T00621018  RH  057%=      5-min Rain = 0
KSC1 132336Z 32019G30KT 06/M02 A3003 RMK A01 T00621019  RH  056%=      5-min Rain = 0
KSC1 132337Z 32018G25KT 06/M02 A3003 RMK A01 T00641021  RH  055%=      5-min Rain = 0
KSC1 132338Z 32021G30KT 06/M02 A3003 RMK A01 T00641021  RH  054%=      5-min Rain = 0
KSC1 132339Z 32022G31KT 07/M02 A3003 RMK A01 T00651024  RH  053%=      5-min Rain = 0
KSC1 132340Z 32018G23KT 07/M02 A3003 RMK A01 T00661024  RH  053%=      5-min Rain = 0
KSC1 132341Z 32018G26KT 07/M02 A3003 RMK A01 T00661023  RH  053%=      5-min Rain = 0
KSC1 132342Z 32022G29KT 07/M02 A3003 RMK A01 T00661024  RH  053%=      5-min Rain = 0
KSC1 132343Z 31017G23KT 07/M02 A3003 RMK A01 T00661024  RH  053%=      5-min Rain = 0
KSC1 132344Z 32019G26KT 07/M02 A3004 RMK A01 T00661023  RH  053%=      5-min Rain = 0
KSC1 132345Z 32016G25KT 07/M02 A3003 RMK A01 T00661024  RH  053%=      5-min Rain = 0
KSC1 132346Z 32020KT 07/M03 A3003 RMK A01 T00661025  RH  052%=      5-min Rain = 0
KSC1 132347Z 31021KT 07/M03 A3003 RMK A01 T00661026  RH  052%=      5-min Rain = 0
KSC1 132348Z 32020G26KT 07/M03 A3003 RMK A01 T00671028  RH  051%=      5-min Rain = 0
KSC1 132349Z 32016G21KT 07/M03 A3004 RMK A01 T00681026  RH  051%=      5-min Rain = 0
KSC1 132350Z 32017G23KT 07/M03 A3003 RMK A01 T00681026  RH  051%=      5-min Rain = 0
KSC1 132351Z 32023G30KT 07/M03 A3004 RMK A01 T00671028  RH  051%=      5-min Rain = 0
KSC1 132352Z 32020G25KT 07/M03 A3004 RMK A01 T00681028  RH  050%=      5-min Rain = 0
KSC1 132353Z 32023G31KT 07/M03 A3004 RMK A01 T00691029  RH  050%=      5-min Rain = 0
KSC1 132354Z 32023G29KT 07/M03 A3004 RMK A01 T00701031  RH  049%=      5-min Rain = 0
KSC1 132355Z 32019G25KT 07/M03 A3004 RMK A01 T00711031  RH  048%=      5-min Rain = 0
KSC1 132356Z 33018KT 07/M03 A3004 RMK A01 T00711030  RH  049%=      5-min Rain = 0
KSC1 132357Z 32019G26KT 07/M03 A3004 RMK A01 T00701031  RH  048%=      5-min Rain = 0
KSC1 132358Z 32015G22KT 07/M03 A3004 RMK A01 T00701031  RH  048%=      5-min Rain = 0
KSC1 132359Z 32018G28KT 07/M03 A3004 RMK A01 T00701029  RH  049%=      5-min Rain = 0
KSC1 140000Z 32017G22KT 07/M03 A3004 RMK A01 T00701031  RH  049%=      5-min Rain = 0
KSC1 140001Z 31015KT 07/M03 A3004 RMK A01 T00701030  RH  049%=      5-min Rain = 0
KSC1 140002Z 31015KT 07/M03 A3004 RMK A01 T00701030  RH  049%=      5-min Rain = 0
KSC1 140003Z 31017KT 07/M03 A3004 RMK A01 T00701030  RH  049%=      5-min Rain = 0
KSC1 140004Z 31012KT 07/M03 A3004 RMK A01 T00701029  RH  049%=      5-min Rain = 0
KSC1 140005Z 31014KT 07/M03 A3004 RMK A01 T00691029  RH  049%=      5-min Rain = 0
KSC1 140006Z 31015KT 07/M03 A3004 RMK A01 T00691031  RH  049%=      5-min Rain = 0
KSC1 140007Z 31014G21KT 07/M03 A3004 RMK A01 T00701031  RH  049%=      5-min Rain = 0
KSC1 140008Z 32012KT 07/M03 A3004 RMK A01 T00701031  RH  049%=      5-min Rain = 0
KSC1 140009Z 31014KT 07/M03 A3004 RMK A01 T00701031  RH  049%=      5-min Rain = 0
KSC1 140010Z 32015KT 07/M03 A3004 RMK A01 T00701031  RH  049%=      5-min Rain = 0
KSC1 140011Z 32017G22KT 07/M03 A3005 RMK A01 T00701032  RH  048%=      5-min Rain = 0
KSC1 140012Z 32014KT 07/M03 A3005 RMK A01 T00701033  RH  048%=      5-min Rain = 0
KSC1 140013Z 33015G21KT 07/M03 A3005 RMK A01 T00711032  RH  048%=      5-min Rain = 0
KSC1 140014Z 33018KT 07/M03 A3005 RMK A01 T00711033  RH  047%=      5-min Rain = 0
KSC1 140015Z 34013KT 07/M03 A3005 RMK A01 T00721033  RH  047%=      5-min Rain = 0
KSC1 140016Z 33012G17KT 07/M03 A3005 RMK A01 T00711032  RH  048%=      5-min Rain = 0
KSC1 140017Z 33013KT 07/M03 A3006 RMK A01 T00711031  RH  048%=      5-min Rain = 0
KSC1 140018Z 34013G18KT 07/M03 A3005 RMK A01 T00701031  RH  049%=      5-min Rain = 0
KSC1 140019Z 34011G18KT 07/M03 A3005 RMK A01 T00701031  RH  049%=      5-min Rain = 0
KSC1 140020Z 34012KT 07/M03 A3005 RMK A01 T00701030  RH  049%=      5-min Rain = 0
KSC1 140021Z 33013G18KT 07/M03 A3006 RMK A01 T00701031  RH  049%=      5-min Rain = 0
KSC1 140022Z 31013G23KT 07/M03 A3006 RMK A01 T00701032  RH  048%=      5-min Rain = 0
KSC1 140023Z 33018G28KT 07/M03 A3005 RMK A01 T00701034  RH  048%=      5-min Rain = 0
KSC1 140024Z 33017G23KT 07/M04 A3005 RMK A01 T00721038  RH  045%=      5-min Rain = 0
KSC1 140025Z 33020G34KT 07/M04 A3005 RMK A01 T00741041  RH  044%=      5-min Rain = 0
KSC1 140026Z 33019G25KT 08/M04 A3006 RMK A01 T00751040  RH  044%=      5-min Rain = 0
KSC1 140027Z 33021G30KT 08/M04 A3006 RMK A01 T00751039  RH  044%=      5-min Rain = 0
KSC1 140028Z 33022KT 08/M04 A3005 RMK A01 T00751041  RH  043%=      5-min Rain = 0
KSC1 140029Z 34024G31KT 08/M05 A3005 RMK A01 T00761047  RH  041%=      5-min Rain = 0
KSC1 140030Z 33022G34KT 08/M05 A3006 RMK A01 T00781047  RH  041%=      5-min Rain = 0
KSC1 140031Z 34023G31KT 08/M05 A3006 RMK A01 T00781047  RH  041%=      5-min Rain = 0
KSC1 140032Z 32020G28KT 08/M05 A3006 RMK A01 T00781045  RH  041%=      5-min Rain = 0
KSC1 140033Z 33019G24KT 08/M05 A3006 RMK A01 T00781045  RH  042%=      5-min Rain = 0
KSC1 140034Z 33021G34KT 08/M05 A3006 RMK A01 T00781047  RH  041%=      5-min Rain = 0
KSC1 140035Z 33021G26KT 08/M05 A3006 RMK A01 T00781048  RH  040%=      5-min Rain = 0
KSC1 140036Z 34018G24KT 08/M05 A3006 RMK A01 T00791047  RH  041%=      5-min Rain = 0
KSC1 140037Z 33020G25KT 08/M05 A3006 RMK A01 T00791046  RH  041%=      5-min Rain = 0
KSC1 140038Z 33019KT 08/M05 A3006 RMK A01 T00781047  RH  041%=      5-min Rain = 0
KSC1 140039Z 33014G20KT 08/M04 A3006 RMK A01 T00781044  RH  042%=      5-min Rain = 0
KSC1 140040Z 33014KT 08/M04 A3006 RMK A01 T00771044  RH  042%=      5-min Rain = 0
KSC1 140041Z 33013KT 08/M04 A3006 RMK A01 T00761044  RH  042%=      5-min Rain = 0
KSC1 140042Z 34015KT 08/M04 A3006 RMK A01 T00761044  RH  042%=      5-min Rain = 0
KSC1 140043Z 34014KT 08/M04 A3006 RMK A01 T00761044  RH  042%=      5-min Rain = 0
KSC1 140044Z 34012G17KT 08/M04 A3006 RMK A01 T00761043  RH  042%=      5-min Rain = 0
KSC1 140045Z 33013G19KT 08/M04 A3006 RMK A01 T00761042  RH  043%=      5-min Rain = 0
KSC1 140046Z 33015KT 08/M04 A3006 RMK A01 T00751042  RH  043%=      5-min Rain = 0
KSC1 140047Z 33018KT 08/M04 A3006 RMK A01 T00751043  RH  043%=      5-min Rain = 0
KSC1 140048Z 32015KT 08/M04 A3006 RMK A01 T00751044  RH  043%=      5-min Rain = 0
KSC1 140049Z 32019G26KT 08/M04 A3006 RMK A01 T00761044  RH  043%=      5-min Rain = 0
KSC1 140050Z 31023G31KT 08/M05 A3006 RMK A01 T00761046  RH  041%=      5-min Rain = 0
KSC1 140051Z 31026G35KT 08/M05 A3006 RMK A01 T00771050  RH  040%=      5-min Rain = 0
KSC1 140052Z 32027G35KT 08/M05 A3006 RMK A01 T00791051  RH  039%=      5-min Rain = 0
KSC1 140053Z 33022G27KT 08/M05 A3006 RMK A01 T00801052  RH  039%=      5-min Rain = 0
KSC1 140054Z 32020G28KT 08/M05 A3006 RMK A01 T00801052  RH  039%=      5-min Rain = 0
KSC1 140055Z 33019G26KT 08/M05 A3006 RMK A01 T00801052  RH  039%=      5-min Rain = 0
KSC1 140056Z 32019G24KT 08/M05 A3006 RMK A01 T00811053  RH  038%=      5-min Rain = 0
KSC1 140057Z 33014KT 08/M05 A3006 RMK A01 T00811052  RH  039%=      5-min Rain = 0
KSC1 140058Z 34015G21KT 08/M05 A3006 RMK A01 T00801050  RH  039%=      5-min Rain = 0
KSC1 140059Z 34022G33KT 08/M05 A3006 RMK A01 T00791050  RH  040%=      5-min Rain = 0
KSC1 140100Z 34017G22KT 08/M05 A3006 RMK A01 T00791049  RH  040%=      5-min Rain = 0
KSC1 140101Z 35020G25KT 08/M05 A3007 RMK A01 T00781048  RH  041%=      5-min Rain = 0
KSC1 140102Z 35017G26KT 08/M05 A3007 RMK A01 T00771047  RH  041%=      5-min Rain = 0
KSC1 140103Z 34023KT 08/M05 A3006 RMK A01 T00771047  RH  041%=      5-min Rain = 0
KSC1 140104Z 35017G22KT 08/M05 A3007 RMK A01 T00771046  RH  042%=      5-min Rain = 0
KSC1 140105Z 35018G27KT 08/M04 A3007 RMK A01 T00761044  RH  042%=      5-min Rain = 0
KSC1 140106Z 34019G27KT 08/M05 A3006 RMK A01 T00761046  RH  042%=      5-min Rain = 0
KSC1 140107Z 33018G25KT 08/M05 A3006 RMK A01 T00771050  RH  040%=      5-min Rain = 0
KSC1 140108Z 34023G28KT 08/M05 A3006 RMK A01 T00781051  RH  040%=      5-min Rain = 0
KSC1 140109Z 33020G25KT 08/M05 A3007 RMK A01 T00801051  RH  039%=      5-min Rain = 0
KSC1 140110Z 33017KT 08/M05 A3007 RMK A01 T00791049  RH  040%=      5-min Rain = 0
KSC1 140111Z 34012G17KT 08/M05 A3007 RMK A01 T00781046  RH  041%=      5-min Rain = 0
KSC1 140112Z 35020G31KT 08/M05 A3007 RMK A01 T00771045  RH  042%=      5-min Rain = 0
KSC1 140113Z 33015G24KT 08/M05 A3007 RMK A01 T00761048  RH  041%=      5-min Rain = 0
KSC1 140114Z 33015KT 08/M04 A3007 RMK A01 T00761043  RH  042%=      5-min Rain = 0
KSC1 140115Z 33012G17KT 08/M04 A3007 RMK A01 T00751042  RH  043%=      5-min Rain = 0
KSC1 140116Z 33015G22KT 07/M04 A3007 RMK A01 T00741042  RH  044%=      5-min Rain = 0
KSC1 140117Z 32028G35KT 07/M05 A3006 RMK A01 T00741049  RH  041%=      5-min Rain = 0
KSC1 140118Z 32022G30KT 08/M06 A3006 RMK A01 T00791056  RH  038%=      5-min Rain = 0
KSC1 140119Z 32019KT 08/M06 A3006 RMK A01 T00801055  RH  038%=      5-min Rain = 0
KSC1 140120Z 32023G30KT 08/M06 A3006 RMK A01 T00801055  RH  038%=      5-min Rain = 0
KSC1 140121Z 32023G28KT 08/M06 A3007 RMK A01 T00811055  RH  038%=      5-min Rain = 0
KSC1 140122Z 33019G27KT 08/M05 A3007 RMK A01 T00811053  RH  038%=      5-min Rain = 0
KSC1 140123Z 34018G24KT 08/M05 A3007 RMK A01 T00801052  RH  039%=      5-min Rain = 0
KSC1 140124Z 32014G20KT 08/M05 A3007 RMK A01 T00791050  RH  039%=      5-min Rain = 0
KSC1 140125Z 32013G19KT 08/M05 A3007 RMK A01 T00781048  RH  040%=      5-min Rain = 0
KSC1 140126Z 32014KT 08/M05 A3006 RMK A01 T00771047  RH  041%=      5-min Rain = 0
KSC1 140127Z 32011KT 08/M05 A3006 RMK A01 T00771047  RH  041%=      5-min Rain = 0
KSC1 140128Z 31009KT 08/M05 A3007 RMK A01 T00761045  RH  042%=      5-min Rain = 0
KSC1 140129Z 31007KT 08/M04 A3006 RMK A01 T00751044  RH  043%=      5-min Rain = 0
KSC1 140130Z 31007KT 07/M04 A3007 RMK A01 T00741042  RH  044%=      5-min Rain = 0
KSC1 140131Z 31007KT 07/M04 A3007 RMK A01 T00731040  RH  045%=      5-min Rain = 0
KSC1 140132Z 31010KT 07/M04 A3007 RMK A01 T00721039  RH  045%=      5-min Rain = 0
KSC1 140133Z 31010KT 07/M04 A3007 RMK A01 T00711040  RH  045%=      5-min Rain = 0
KSC1 140134Z 31009KT 07/M04 A3007 RMK A01 T00711040  RH  045%=      5-min Rain = 0
KSC1 140135Z 31009KT 07/M04 A3007 RMK A01 T00711041  RH  045%=      5-min Rain = 0
KSC1 140136Z 31007KT 07/M04 A3007 RMK A01 T00711040  RH  045%=      5-min Rain = 0
KSC1 140137Z 31008KT 07/M04 A3007 RMK A01 T00711039  RH  045%=      5-min Rain = 0
KSC1 140138Z 31008KT 07/M04 A3007 RMK A01 T00711040  RH  045%=      5-min Rain = 0
KSC1 140139Z 31009KT 07/M04 A3007 RMK A01 T00701040  RH  045%=      5-min Rain = 0
KSC1 140140Z 31011KT 07/M04 A3007 RMK A01 T00711041  RH  045%=      5-min Rain = 0
KSC1 140141Z 31012KT 07/M04 A3007 RMK A01 T00711043  RH  044%=      5-min Rain = 0
KSC1 140142Z 31010KT 07/M04 A3007 RMK A01 T00721043  RH  044%=      5-min Rain = 0
KSC1 140143Z 32010KT 07/M04 A3007 RMK A01 T00721043  RH  044%=      5-min Rain = 0
KSC1 140144Z 31011KT 07/M04 A3007 RMK A01 T00721044  RH  044%=      5-min Rain = 0
KSC1 140145Z 32014KT 07/M05 A3007 RMK A01 T00721045  RH  043%=      5-min Rain = 0
KSC1 140146Z 31012KT 07/M05 A3007 RMK A01 T00731046  RH  043%=      5-min Rain = 0
KSC1 140147Z 30011G16KT 07/M04 A3007 RMK A01 T00731044  RH  043%=      5-min Rain = 0
KSC1 140148Z 31011KT 07/M04 A3006 RMK A01 T00731044  RH  043%=      5-min Rain = 0
KSC1 140149Z 31014KT 07/M05 A3007 RMK A01 T00731045  RH  043%=      5-min Rain = 0
KSC1 140150Z 31011KT 07/M05 A3007 RMK A01 T00731046  RH  043%=      5-min Rain = 0
KSC1 140151Z 31011KT 07/M05 A3007 RMK A01 T00731045  RH  043%=      5-min Rain = 0
KSC1 140152Z 31013KT 07/M05 A3007 RMK A01 T00731045  RH  043%=      5-min Rain = 0
KSC1 140153Z 31011KT 07/M05 A3007 RMK A01 T00731045  RH  043%=      5-min Rain = 0
KSC1 140154Z 31011KT 07/M05 A3007 RMK A01 T00731046  RH  043%=      5-min Rain = 0
KSC1 140155Z 31009KT 07/M05 A3007 RMK A01 T00731046  RH  043%=      5-min Rain = 0
KSC1 140156Z 31011G17KT 07/M05 A3007 RMK A01 T00731046  RH  043%=      5-min Rain = 0
KSC1 140157Z 31010KT 07/M05 A3007 RMK A01 T00731047  RH  042%=      5-min Rain = 0
KSC1 140158Z 31013G19KT 07/M05 A3007 RMK A01 T00731047  RH  042%=      5-min Rain = 0
KSC1 140159Z 31012KT 07/M05 A3007 RMK A01 T00731048  RH  042%=      5-min Rain = 0
KSC1 140200Z 31015KT 07/M05 A3007 RMK A01 T00741049  RH  041%=      5-min Rain = 0
KSC1 140201Z 31014KT 07/M05 A3007 RMK A01 T00741050  RH  041%=      5-min Rain = 0
KSC1 140202Z 31012G17KT 07/M05 A3007 RMK A01 T00741050  RH  041%=      5-min Rain = 0
KSC1 140203Z 31011KT 07/M05 A3007 RMK A01 T00741049  RH  041%=      5-min Rain = 0
KSC1 140204Z 31009G14KT 07/M05 A3007 RMK A01 T00741049  RH  041%=      5-min Rain = 0
KSC1 140205Z 31014KT 07/M05 A3007 RMK A01 T00741048  RH  042%=      5-min Rain = 0
KSC1 140206Z 32015G21KT 07/M05 A3007 RMK A01 T00741050  RH  041%=      5-min Rain = 0
KSC1 140207Z 30010G18KT 07/M05 A3007 RMK A01 T00741051  RH  041%=      5-min Rain = 0
KSC1 140208Z 31014G20KT 07/M05 A3007 RMK A01 T00741050  RH  041%=      5-min Rain = 0
KSC1 140209Z 31013G18KT 08/M05 A3007 RMK A01 T00751052  RH  040%=      5-min Rain = 0
KSC1 140210Z 31014G19KT 07/M05 A3007 RMK A01 T00741052  RH  040%=      5-min Rain = 0
KSC1 140211Z 31011KT 08/M05 A3007 RMK A01 T00751051  RH  040%=      5-min Rain = 0
KSC1 140212Z 31010KT 07/M05 A3007 RMK A01 T00741050  RH  041%=      5-min Rain = 0
KSC1 140213Z 30013G19KT 07/M05 A3007 RMK A01 T00731050  RH  041%=      5-min Rain = 0
KSC1 140214Z 31012G17KT 07/M05 A3007 RMK A01 T00731051  RH  041%=      5-min Rain = 0
KSC1 140215Z 31015KT 07/M05 A3007 RMK A01 T00731052  RH  041%=      5-min Rain = 0
KSC1 140216Z 31014G20KT 07/M05 A3007 RMK A01 T00741054  RH  040%=      5-min Rain = 0
KSC1 140217Z 31015G22KT 07/M05 A3007 RMK A01 T00741054  RH  040%=      5-min Rain = 0
KSC1 140218Z 31013KT 07/M05 A3007 RMK A01 T00741054  RH  040%=      5-min Rain = 0
KSC1 140219Z 31017G24KT 07/M06 A3007 RMK A01 T00741055  RH  039%=      5-min Rain = 0
KSC1 140220Z 30016KT 07/M06 A3007 RMK A01 T00741057  RH  039%=      5-min Rain = 0
KSC1 140221Z 31016G22KT 08/M06 A3007 RMK A01 T00751057  RH  039%=      5-min Rain = 0
KSC1 140222Z 31014G20KT 07/M06 A3007 RMK A01 T00741057  RH  039%=      5-min Rain = 0
KSC1 140223Z 31017G23KT 08/M06 A3007 RMK A01 T00751056  RH  039%=      5-min Rain = 0
KSC1 140224Z 31017G24KT 08/M06 A3007 RMK A01 T00751058  RH  038%=      5-min Rain = 0
KSC1 140225Z 31018KT 08/M06 A3007 RMK A01 T00751059  RH  038%=      5-min Rain = 0
KSC1 140226Z 31013G20KT 08/M06 A3007 RMK A01 T00751059  RH  038%=      5-min Rain = 0
KSC1 140227Z 31012KT 08/M06 A3007 RMK A01 T00751056  RH  039%=      5-min Rain = 0
KSC1 140228Z 31018G25KT 07/M06 A3007 RMK A01 T00741056  RH  039%=      5-min Rain = 0
KSC1 140229Z 31017G26KT 07/M06 A3007 RMK A01 T00731059  RH  039%=      5-min Rain = 0
KSC1 140230Z 30016KT 07/M06 A3007 RMK A01 T00741058  RH  039%=      5-min Rain = 0
KSC1 140231Z 31018G24KT 07/M06 A3007 RMK A01 T00741059  RH  038%=      5-min Rain = 0
KSC1 140232Z 31011G18KT 07/M06 A3007 RMK A01 T00741059  RH  038%=      5-min Rain = 0
KSC1 140233Z 30015G21KT 07/M06 A3007 RMK A01 T00731057  RH  039%=      5-min Rain = 0
KSC1 140234Z 31016G21KT 07/M06 A3007 RMK A01 T00731058  RH  039%=      5-min Rain = 0
KSC1 140235Z 31018KT 07/M06 A3007 RMK A01 T00731059  RH  039%=      5-min Rain = 0
KSC1 140236Z 31017G22KT 07/M06 A3007 RMK A01 T00731061  RH  038%=      5-min Rain = 0
KSC1 140237Z 30014KT 07/M06 A3007 RMK A01 T00731059  RH  038%=      5-min Rain = 0
KSC1 140238Z 32015G20KT 07/M06 A3007 RMK A01 T00731059  RH  039%=      5-min Rain = 0
KSC1 140239Z 31014KT 07/M06 A3007 RMK A01 T00731059  RH  039%=      5-min Rain = 0
KSC1 140240Z 31017G22KT 07/M06 A3007 RMK A01 T00721059  RH  039%=      5-min Rain = 0
KSC1 140241Z 31015G20KT 07/M06 A3007 RMK A01 T00721060  RH  038%=      5-min Rain = 0
KSC1 140242Z 31016KT 07/M06 A3007 RMK A01 T00731061  RH  038%=      5-min Rain = 0
KSC1 140243Z 31019G24KT 07/M06 A3007 RMK A01 T00731061  RH  038%=      5-min Rain = 0
KSC1 140244Z 31015G21KT 07/M06 A3007 RMK A01 T00731061  RH  038%=      5-min Rain = 0
KSC1 140245Z 31017G24KT 07/M06 A3007 RMK A01 T00721060  RH  038%=      5-min Rain = 0
KSC1 140246Z 31012G17KT 07/M06 A3007 RMK A01 T00721060  RH  038%=      5-min Rain = 0
KSC1 140247Z 31014G19KT 07/M06 A3007 RMK A01 T00721060  RH  039%=      5-min Rain = 0
KSC1 140248Z 32013KT 07/M06 A3007 RMK A01 T00711059  RH  039%=      5-min Rain = 0
KSC1 140249Z 31013G19KT 07/M06 A3007 RMK A01 T00701059  RH  039%=      5-min Rain = 0
KSC1 140250Z 32014KT 07/M06 A3007 RMK A01 T00691060  RH  039%=      5-min Rain = 0
KSC1 140251Z 31015G21KT 07/M06 A3007 RMK A01 T00691060  RH  039%=      5-min Rain = 0
KSC1 140252Z 31015G21KT 07/M06 A3007 RMK A01 T00691061  RH  039%=      5-min Rain = 0
KSC1 140253Z 31017G23KT 07/M06 A3007 RMK A01 T00691062  RH  039%=      5-min Rain = 0
KSC1 140254Z 31019G25KT 07/M06 A3007 RMK A01 T00691062  RH  039%=      5-min Rain = 0
KSC1 140255Z 31018G24KT 07/M06 A3007 RMK A01 T00701063  RH  038%=      5-min Rain = 0
KSC1 140256Z 31017G25KT 07/M06 A3007 RMK A01 T00701063  RH  038%=      5-min Rain = 0
KSC1 140257Z 31017G27KT 07/M06 A3007 RMK A01 T00701064  RH  038%=      5-min Rain = 0
KSC1 140258Z 31015G22KT 07/M06 A3007 RMK A01 T00701063  RH  038%=      5-min Rain = 0
KSC1 140259Z 31013G19KT 07/M06 A3007 RMK A01 T00691062  RH  039%=      5-min Rain = 0
KSC1 140300Z 31017G23KT 07/M06 A3007 RMK A01 T00681062  RH  039%=      5-min Rain = 0
KSC1 140301Z 31015G21KT 07/M06 A3007 RMK A01 T00681063  RH  039%=      5-min Rain = 0
KSC1 140302Z 31016G22KT 07/M06 A3007 RMK A01 T00681063  RH  039%=      5-min Rain = 0
KSC1 140303Z 31016KT 07/M06 A3007 RMK A01 T00681063  RH  039%=      5-min Rain = 0
KSC1 140304Z 31015KT 07/M06 A3007 RMK A01 T00681062  RH  039%=      5-min Rain = 0
KSC1 140305Z 32017G25KT 07/M06 A3007 RMK A01 T00671062  RH  039%=      5-min Rain = 0
KSC1 140306Z 31020KT 07/M06 A3007 RMK A01 T00671063  RH  039%=      5-min Rain = 0
KSC1 140307Z 31017G24KT 07/M06 A3007 RMK A01 T00671064  RH  039%=      5-min Rain = 0
KSC1 140308Z 32018G26KT 07/M06 A3007 RMK A01 T00671064  RH  038%=      5-min Rain = 0
KSC1 140309Z 32021G29KT 07/M06 A3007 RMK A01 T00671064  RH  039%=      5-min Rain = 0
KSC1 140310Z 31018G23KT 07/M07 A3007 RMK A01 T00681066  RH  038%=      5-min Rain = 0
KSC1 140311Z 31017G23KT 07/M07 A3007 RMK A01 T00681066  RH  038%=      5-min Rain = 0
KSC1 140312Z 32018G24KT 07/M06 A3007 RMK A01 T00681064  RH  038%=      5-min Rain = 0
KSC1 140313Z 31018G23KT 07/M07 A3007 RMK A01 T00671065  RH  038%=      5-min Rain = 0
KSC1 140314Z 31016G21KT 07/M06 A3007 RMK A01 T00671064  RH  039%=      5-min Rain = 0
KSC1 140315Z 32014KT 07/M06 A3007 RMK A01 T00671064  RH  039%=      5-min Rain = 0
KSC1 140316Z 32015G23KT 07/M06 A3007 RMK A01 T00661063  RH  039%=      5-min Rain = 0
KSC1 140317Z 31019G25KT 07/M06 A3007 RMK A01 T00651064  RH  039%=      5-min Rain = 0
KSC1 140318Z 31021G27KT 07/M07 A3007 RMK A01 T00661066  RH  038%=      5-min Rain = 0
KSC1 140319Z 32018G24KT 07/M07 A3008 RMK A01 T00671066  RH  038%=      5-min Rain = 0
KSC1 140320Z 32018G25KT 07/M07 A3008 RMK A01 T00671066  RH  038%=      5-min Rain = 0
KSC1 140321Z 31015G20KT 07/M07 A3008 RMK A01 T00671065  RH  039%=      5-min Rain = 0
KSC1 140322Z 32016G22KT 07/M07 A3008 RMK A01 T00661066  RH  038%=      5-min Rain = 0
KSC1 140323Z 31016KT 07/M07 A3008 RMK A01 T00661066  RH  038%=      5-min Rain = 0
KSC1 140324Z 32020KT 07/M07 A3008 RMK A01 T00661065  RH  039%=      5-min Rain = 0
KSC1 140325Z 32020G29KT 07/M07 A3008 RMK A01 T00651067  RH  038%=      5-min Rain = 0
KSC1 140326Z 32017G24KT 07/M07 A3008 RMK A01 T00661067  RH  038%=      5-min Rain = 0
KSC1 140327Z 31017KT 07/M07 A3008 RMK A01 T00661067  RH  038%=      5-min Rain = 0
KSC1 140328Z 32016G21KT 07/M07 A3008 RMK A01 T00661067  RH  038%=      5-min Rain = 0
KSC1 140329Z 32017G25KT 07/M07 A3008 RMK A01 T00651067  RH  038%=      5-min Rain = 0
KSC1 140330Z 32014G23KT 07/M07 A3008 RMK A01 T00651066  RH  038%=      5-min Rain = 0
KSC1 140331Z 32020KT 07/M07 A3008 RMK A01 T00651067  RH  038%=      5-min Rain = 0
KSC1 140332Z 32014KT 07/M07 A3008 RMK A01 T00651068  RH  038%=      5-min Rain = 0
KSC1 140333Z 32018G23KT 07/M07 A3008 RMK A01 T00651066  RH  039%=      5-min Rain = 0
KSC1 140334Z 31019G29KT 06/M07 A3008 RMK A01 T00641067  RH  039%=      5-min Rain = 0
KSC1 140335Z 32015G22KT 06/M07 A3008 RMK A01 T00641068  RH  038%=      5-min Rain = 0
KSC1 140336Z 32017G23KT 06/M07 A3008 RMK A01 T00641067  RH  038%=      5-min Rain = 0
KSC1 140337Z 32018G23KT 07/M07 A3008 RMK A01 T00651069  RH  038%=      5-min Rain = 0
KSC1 140338Z 31017G22KT 07/M07 A3008 RMK A01 T00651068  RH  038%=      5-min Rain = 0
KSC1 140339Z 31015G23KT 06/M07 A3008 RMK A01 T00641067  RH  038%=      5-min Rain = 0
KSC1 140340Z 32017G22KT 06/M07 A3008 RMK A01 T00631067  RH  039%=      5-min Rain = 0
KSC1 140341Z 31018G25KT 06/M07 A3008 RMK A01 T00631068  RH  039%=      5-min Rain = 0
KSC1 140342Z 32016G22KT 06/M07 A3008 RMK A01 T00631068  RH  038%=      5-min Rain = 0
KSC1 140343Z 31015G25KT 06/M07 A3008 RMK A01 T00631068  RH  039%=      5-min Rain = 0
KSC1 140344Z 31018G25KT 06/M07 A3008 RMK A01 T00631068  RH  039%=      5-min Rain = 0
KSC1 140345Z 32020G30KT 06/M07 A3008 RMK A01 T00631069  RH  038%=      5-min Rain = 0
KSC1 140346Z 31019G28KT 06/M07 A3008 RMK A01 T00641070  RH  038%=      5-min Rain = 0
KSC1 140347Z 31017G22KT 06/M07 A3008 RMK A01 T00641070  RH  038%=      5-min Rain = 0
KSC1 140348Z 30016G23KT 06/M07 A3008 RMK A01 T00631068  RH  038%=      5-min Rain = 0
KSC1 140349Z 31015G21KT 06/M07 A3008 RMK A01 T00631068  RH  039%=      5-min Rain = 0
KSC1 140350Z 32013KT 06/M07 A3008 RMK A01 T00621067  RH  039%=      5-min Rain = 0
KSC1 140351Z 32018G23KT 06/M07 A3008 RMK A01 T00611067  RH  039%=      5-min Rain = 0
KSC1 140352Z 31014G19KT 06/M07 A3009 RMK A01 T00611069  RH  039%=      5-min Rain = 0
KSC1 140353Z 31015G20KT 06/M07 A3009 RMK A01 T00611068  RH  039%=      5-min Rain = 0
KSC1 140354Z 31017KT 06/M07 A3009 RMK A01 T00611068  RH  039%=      5-min Rain = 0
KSC1 140355Z 32016G21KT 06/M07 A3009 RMK A01 T00611069  RH  039%=      5-min Rain = 0
KSC1 140356Z 31015KT 06/M07 A3009 RMK A01 T00611069  RH  039%=      5-min Rain = 0
KSC1 140357Z 31018G26KT 06/M07 A3009 RMK A01 T00611069  RH  039%=      5-min Rain = 0
KSC1 140358Z 31019KT 06/M07 A3009 RMK A01 T00611069  RH  039%=      5-min Rain = 0
KSC1 140359Z 31016G25KT 06/M07 A3009 RMK A01 T00611070  RH  039%=      5-min Rain = 0
KSC1 140400Z 31017G24KT 06/M07 A3009 RMK A01 T00611070  RH  039%=      5-min Rain = 0
KSC1 140401Z 31019G26KT 06/M07 A3009 RMK A01 T00601069  RH  039%=      5-min Rain = 0
KSC1 140402Z 31015KT 06/M07 A3009 RMK A01 T00601070  RH  039%=      5-min Rain = 0
KSC1 140403Z 31014G19KT 06/M07 A3009 RMK A01 T00601069  RH  039%=      5-min Rain = 0
KSC1 140404Z 31014G19KT 06/M07 A3009 RMK A01 T00591069  RH  039%=      5-min Rain = 0
KSC1 140405Z 32013KT 06/M07 A3009 RMK A01 T00591068  RH  040%=      5-min Rain = 0
KSC1 140406Z 31012G17KT 06/M07 A3009 RMK A01 T00581068  RH  040%=      5-min Rain = 0
KSC1 140407Z 31015G20KT 06/M07 A3009 RMK A01 T00571068  RH  040%=      5-min Rain = 0
KSC1 140408Z 31014G20KT 06/M07 A3009 RMK A01 T00571069  RH  040%=      5-min Rain = 0
KSC1 140409Z 31014G24KT 06/M07 A3009 RMK A01 T00581069  RH  040%=      5-min Rain = 0
KSC1 140410Z 30014G22KT 06/M07 A3009 RMK A01 T00581070  RH  039%=      5-min Rain = 0
KSC1 140411Z 30012KT 06/M07 A3009 RMK A01 T00581068  RH  040%=      5-min Rain = 0
KSC1 140412Z 30013G19KT 06/M07 A3009 RMK A01 T00571067  RH  040%=      5-min Rain = 0
KSC1 140413Z 31013G18KT 06/M07 A3009 RMK A01 T00561067  RH  041%=      5-min Rain = 0
KSC1 140414Z 31015G24KT 06/M07 A3009 RMK A01 T00551067  RH  041%=      5-min Rain = 0
KSC1 140415Z 31017G23KT 06/M07 A3009 RMK A01 T00551068  RH  041%=      5-min Rain = 0
KSC1 140416Z 30014G19KT 06/M07 A3009 RMK A01 T00561069  RH  040%=      5-min Rain = 0
KSC1 140417Z 30018KT 06/M07 A3009 RMK A01 T00561068  RH  041%=      5-min Rain = 0
KSC1 140418Z 30015G21KT 06/M07 A3009 RMK A01 T00561069  RH  040%=      5-min Rain = 0
KSC1 140419Z 31014KT 06/M07 A3009 RMK A01 T00561069  RH  040%=      5-min Rain = 0
KSC1 140420Z 31013KT 06/M07 A301 RMK A01 T00551068  RH  041%=      5-min Rain = 0
KSC1 140421Z 31014KT 06/M07 A301 RMK A01 T00551068  RH  041%=      5-min Rain = 0
KSC1 140422Z 31011KT 05/M07 A301 RMK A01 T00541068  RH  041%=      5-min Rain = 0
KSC1 140423Z 31013G19KT 05/M07 A301 RMK A01 T00541068  RH  041%=      5-min Rain = 0
KSC1 140424Z 31014KT 05/M07 A301 RMK A01 T00531068  RH  041%=      5-min Rain = 0
KSC1 140425Z 31016G21KT 05/M07 A301 RMK A01 T00531069  RH  041%=      5-min Rain = 0
KSC1 140426Z 31016G22KT 05/M07 A301 RMK A01 T00541069  RH  041%=      5-min Rain = 0
KSC1 140427Z 31017KT 05/M07 A301 RMK A01 T00541069  RH  040%=      5-min Rain = 0
KSC1 140428Z 31017G22KT 06/M07 A301 RMK A01 T00551070  RH  040%=      5-min Rain = 0
KSC1 140429Z 31017KT 06/M07 A301 RMK A01 T00551070  RH  040%=      5-min Rain = 0
KSC1 140430Z 32013G18KT 06/M07 A301 RMK A01 T00551069  RH  040%=      5-min Rain = 0
KSC1 140431Z 31013G21KT 06/M07 A301 RMK A01 T00551068  RH  041%=      5-min Rain = 0
KSC1 140432Z 32015G21KT 05/M07 A301 RMK A01 T00541068  RH  041%=      5-min Rain = 0
KSC1 140433Z 31016KT 05/M07 A301 RMK A01 T00541069  RH  041%=      5-min Rain = 0
KSC1 140434Z 32015G23KT 05/M07 A301 RMK A01 T00541070  RH  040%=      5-min Rain = 0
KSC1 140435Z 32013KT 05/M07 A301 RMK A01 T00541069  RH  041%=      5-min Rain = 0
KSC1 140436Z 31014G19KT 05/M07 A301 RMK A01 T00541068  RH  041%=      5-min Rain = 0
KSC1 140437Z 32017KT 05/M07 A301 RMK A01 T00531067  RH  041%=      5-min Rain = 0
KSC1 140438Z 32015G23KT 05/M07 A301 RMK A01 T00531068  RH  041%=      5-min Rain = 0
KSC1 140439Z 32015G22KT 05/M07 A301 RMK A01 T00531069  RH  041%=      5-min Rain = 0
KSC1 140440Z 33014KT 05/M07 A301 RMK A01 T00531069  RH  041%=      5-min Rain = 0
KSC1 140441Z 32015G20KT 05/M07 A301 RMK A01 T00531069  RH  041%=      5-min Rain = 0
KSC1 140442Z 32017G25KT 05/M07 A301 RMK A01 T00531070  RH  041%=      5-min Rain = 0
KSC1 140443Z 32014G21KT 05/M07 A3011 RMK A01 T00531070  RH  041%=      5-min Rain = 0
KSC1 140444Z 32017G25KT 05/M07 A301 RMK A01 T00541070  RH  040%=      5-min Rain = 0
KSC1 140445Z 32012G18KT 05/M07 A3011 RMK A01 T00541070  RH  040%=      5-min Rain = 0
KSC1 140446Z 32015G23KT 05/M07 A3011 RMK A01 T00541069  RH  041%=      5-min Rain = 0
KSC1 140447Z 32015G23KT 05/M07 A3011 RMK A01 T00531070  RH  041%=      5-min Rain = 0
KSC1 140448Z 32016KT 05/M07 A3011 RMK A01 T00531070  RH  041%=      5-min Rain = 0
KSC1 140449Z 32015KT 05/M07 A3011 RMK A01 T00531070  RH  041%=      5-min Rain = 0
KSC1 140450Z 32019KT 05/M07 A3011 RMK A01 T00531070  RH  041%=      5-min Rain = 0
KSC1 140451Z 31012G18KT 05/M07 A3011 RMK A01 T00531070  RH  040%=      5-min Rain = 0
KSC1 140452Z 32013G18KT 05/M07 A3011 RMK A01 T00531069  RH  041%=      5-min Rain = 0
KSC1 140453Z 31013KT 05/M07 A3011 RMK A01 T00521069  RH  041%=      5-min Rain = 0
KSC1 140454Z 31015G21KT 05/M07 A3011 RMK A01 T00521070  RH  041%=      5-min Rain = 0
KSC1 140455Z 32013KT 05/M07 A3011 RMK A01 T00531070  RH  041%=      5-min Rain = 0
KSC1 140456Z 32013KT 05/M07 A3011 RMK A01 T00521070  RH  041%=      5-min Rain = 0
KSC1 140457Z 32016G24KT 05/M07 A3011 RMK A01 T00521069  RH  041%=      5-min Rain = 0
KSC1 140458Z 32015G22KT 05/M07 A3011 RMK A01 T00521070  RH  041%=      5-min Rain = 0
KSC1 140459Z 32014KT 05/M07 A3011 RMK A01 T00521070  RH  041%=      5-min Rain = 0
KSC1 140500Z 32012KT 05/M07 A3012 RMK A01 T00521070  RH  041%=      5-min Rain = 0
KSC1 140501Z 31013G21KT 05/M07 A3011 RMK A01 T00511069  RH  041%=      5-min Rain = 0
KSC1 140502Z 32017KT 05/M07 A3011 RMK A01 T00511070  RH  041%=      5-min Rain = 0
KSC1 140503Z 32014KT 05/M07 A3012 RMK A01 T00511071  RH  041%=      5-min Rain = 0
KSC1 140504Z 31016G21KT 05/M07 A3012 RMK A01 T00521071  RH  041%=      5-min Rain = 0
KSC1 140505Z 32014G20KT 05/M07 A3012 RMK A01 T00521071  RH  041%=      5-min Rain = 0
KSC1 140506Z 31016G21KT 05/M07 A3012 RMK A01 T00511070  RH  041%=      5-min Rain = 0
KSC1 140507Z 32016KT 05/M07 A3012 RMK A01 T00511071  RH  041%=      5-min Rain = 0
KSC1 140508Z 32014KT 05/M07 A3012 RMK A01 T00511071  RH  041%=      5-min Rain = 0
KSC1 140509Z 32017G25KT 05/M07 A3012 RMK A01 T00511071  RH  041%=      5-min Rain = 0
KSC1 140510Z 31014G20KT 05/M07 A3012 RMK A01 T00511071  RH  041%=      5-min Rain = 0
KSC1 140511Z 32014KT 05/M07 A3012 RMK A01 T00511071  RH  041%=      5-min Rain = 0
KSC1 140512Z 32015KT 05/M07 A3012 RMK A01 T00521070  RH  041%=      5-min Rain = 0
KSC1 140513Z 31012G19KT 05/M07 A3012 RMK A01 T00511070  RH  041%=      5-min Rain = 0
KSC1 140514Z 31014KT 05/M07 A3012 RMK A01 T00501071  RH  041%=      5-min Rain = 0
KSC1 140515Z 31013KT 05/M07 A3012 RMK A01 T00501071  RH  041%=      5-min Rain = 0
KSC1 140516Z 31012G18KT 05/M07 A3012 RMK A01 T00501071  RH  041%=      5-min Rain = 0
KSC1 140517Z 31012G17KT 05/M07 A3012 RMK A01 T00501071  RH  041%=      5-min Rain = 0
KSC1 140518Z 32014KT 05/M07 A3012 RMK A01 T00501071  RH  041%=      5-min Rain = 0
KSC1 140519Z 32013KT 05/M07 A3012 RMK A01 T00491071  RH  042%=      5-min Rain = 0
KSC1 140520Z 32015G23KT 05/M07 A3012 RMK A01 T00491070  RH  042%=      5-min Rain = 0
KSC1 140521Z 32014G20KT 05/M07 A3012 RMK A01 T00491071  RH  042%=      5-min Rain = 0
KSC1 140522Z 31013KT 05/M07 A3013 RMK A01 T00491070  RH  042%=      5-min Rain = 0
KSC1 140523Z 31012KT 05/M07 A3012 RMK A01 T00491070  RH  042%=      5-min Rain = 0
KSC1 140524Z 31012G17KT 05/M07 A3012 RMK A01 T00481070  RH  042%=      5-min Rain = 0
KSC1 140525Z 32013KT 05/M07 A3012 RMK A01 T00481070  RH  042%=      5-min Rain = 0
KSC1 140526Z 31013KT 05/M07 A3013 RMK A01 T00481070  RH  042%=      5-min Rain = 0
KSC1 140527Z 31012G20KT 05/M07 A3013 RMK A01 T00481070  RH  042%=      5-min Rain = 0
KSC1 140528Z 32012KT 05/M07 A3013 RMK A01 T00481070  RH  042%=      5-min Rain = 0
KSC1 140529Z 31013KT 05/M07 A3013 RMK A01 T00481070  RH  042%=      5-min Rain = 0
KSC1 140530Z 31014G19KT 05/M07 A3012 RMK A01 T00481070  RH  042%=      5-min Rain = 0
KSC1 140531Z 32013KT 05/M07 A3012 RMK A01 T00481071  RH  042%=      5-min Rain = 0
KSC1 140532Z 31014G20KT 05/M07 A3012 RMK A01 T00481071  RH  042%=      5-min Rain = 0
KSC1 140533Z 31012KT 05/M07 A3012 RMK A01 T00481071  RH  042%=      5-min Rain = 0
KSC1 140534Z 31011G18KT 05/M07 A3012 RMK A01 T00481070  RH  042%=      5-min Rain = 0
KSC1 140535Z 32015G20KT 05/M07 A3012 RMK A01 T00471071  RH  042%=      5-min Rain = 0
KSC1 140536Z 32013G18KT 05/M07 A3012 RMK A01 T00471071  RH  042%=      5-min Rain = 0
KSC1 140537Z 32014KT 05/M07 A3012 RMK A01 T00481071  RH  042%=      5-min Rain = 0
KSC1 140538Z 32014KT 05/M07 A3012 RMK A01 T00471071  RH  042%=      5-min Rain = 0
KSC1 140539Z 31016KT 05/M07 A3012 RMK A01 T00471071  RH  042%=      5-min Rain = 0
KSC1 140540Z 31013KT 05/M07 A3012 RMK A01 T00481071  RH  042%=      5-min Rain = 0
KSC1 140541Z 32013G18KT 05/M07 A3012 RMK A01 T00481071  RH  042%=      5-min Rain = 0
KSC1 140542Z 31014KT 05/M07 A3012 RMK A01 T00471070  RH  042%=      5-min Rain = 0
KSC1 140543Z 32014G22KT 05/M07 A3012 RMK A01 T00471071  RH  042%=      5-min Rain = 0
KSC1 140544Z 33015G22KT 05/M07 A3012 RMK A01 T00471071  RH  042%=      5-min Rain = 0
KSC1 140545Z 32011G16KT 05/M07 A3012 RMK A01 T00471071  RH  042%=      5-min Rain = 0
KSC1 140546Z 32015G21KT 05/M07 A3012 RMK A01 T00461072  RH  042%=      5-min Rain = 0
KSC1 140547Z 32014G19KT 05/M07 A3012 RMK A01 T00471072  RH  042%=      5-min Rain = 0
KSC1 140548Z 32013G18KT 05/M07 A3013 RMK A01 T00471072  RH  042%=      5-min Rain = 0
KSC1 140549Z 32013KT 05/M07 A3012 RMK A01 T00471071  RH  042%=      5-min Rain = 0
KSC1 140550Z 32014KT 05/M07 A3013 RMK A01 T00471071  RH  042%=      5-min Rain = 0
KSC1 140551Z 32014KT 05/M07 A3012 RMK A01 T00461072  RH  042%=      5-min Rain = 0
KSC1 140552Z 32013KT 05/M07 A3012 RMK A01 T00461072  RH  042%=      5-min Rain = 0
KSC1 140553Z 32012G17KT 05/M07 A3013 RMK A01 T00461072  RH  042%=      5-min Rain = 0
KSC1 140554Z 32017G23KT 05/M07 A3012 RMK A01 T00461072  RH  042%=      5-min Rain = 0
KSC1 140555Z 32014G21KT 05/M07 A3012 RMK A01 T00461073  RH  042%=      5-min Rain = 0
KSC1 140556Z 32015KT 05/M07 A3012 RMK A01 T00471073  RH  042%=      5-min Rain = 0
KSC1 140557Z 31014G21KT 05/M07 A3013 RMK A01 T00461073  RH  042%=      5-min Rain = 0
KSC1 140558Z 32016G23KT 05/M07 A3013 RMK A01 T00471073  RH  042%=      5-min Rain = 0
KSC1 140559Z 32014G21KT 05/M07 A3013 RMK A01 T00471073  RH  041%=      5-min Rain = 0
KSC1 140600Z 32013G18KT 05/M07 A3013 RMK A01 T00471072  RH  042%=      5-min Rain = 0

Page generated in 0.0381 seconds.